<?xml version="1.0" encoding="UTF-8" standalone="no" ?>
<gpx xmlns="http://www.topografix.com/GPX/1/1" xmlns:xsi="http://www.w3.org/2001/XMLSchema-instance" xsi:schemaLocation="http://www.topografix.com/GPX/1/1 http://www.topografix.com/GPX/1/1/gpx.xsd" version="1.1" creator="VisuGPX - https://www.visugpx.com">
  <metadata>
    <name>Saint Marcelin</name>
    <desc><![CDATA[Il faudrait le combiner avec le Verscorps]]></desc>
  </metadata>
  <trk>
    <name><![CDATA[20120812-110320(1)]]></name>
    <desc><![CDATA[Color:004000ff]]></desc>
    <trkseg>
      <trkpt lat="45.22054" lon="5.34636">
        <ele>384.949982</ele>
        <time>2012-08-11T16:03:47Z</time>
      </trkpt>
      <trkpt lat="45.22054" lon="5.34636">
        <ele>384.949982</ele>
        <time>2012-08-11T16:07:02Z</time>
      </trkpt>
      <trkpt lat="45.22112" lon="5.34556">
        <ele>422.279999</ele>
        <time>2012-08-11T16:07:21Z</time>
      </trkpt>
      <trkpt lat="45.22149" lon="5.34547">
        <ele>403.139984</ele>
        <time>2012-08-11T16:07:27Z</time>
      </trkpt>
      <trkpt lat="45.2219" lon="5.345">
        <ele>420.929993</ele>
        <time>2012-08-11T16:07:39Z</time>
      </trkpt>
      <trkpt lat="45.22237" lon="5.34461">
        <ele>418.630005</ele>
        <time>2012-08-11T16:07:51Z</time>
      </trkpt>
      <trkpt lat="45.22282" lon="5.3442">
        <ele>422.089996</ele>
        <time>2012-08-11T16:08:03Z</time>
      </trkpt>
      <trkpt lat="45.22326" lon="5.34373">
        <ele>435.569977</ele>
        <time>2012-08-11T16:08:15Z</time>
      </trkpt>
      <trkpt lat="45.22373" lon="5.3433">
        <ele>437.349976</ele>
        <time>2012-08-11T16:08:27Z</time>
      </trkpt>
      <trkpt lat="45.2242" lon="5.34288">
        <ele>440.039978</ele>
        <time>2012-08-11T16:08:39Z</time>
      </trkpt>
      <trkpt lat="45.22468" lon="5.34249">
        <ele>440.539978</ele>
        <time>2012-08-11T16:08:51Z</time>
      </trkpt>
      <trkpt lat="45.22512" lon="5.34209">
        <ele>446.039978</ele>
        <time>2012-08-11T16:09:03Z</time>
      </trkpt>
      <trkpt lat="45.22561" lon="5.34166">
        <ele>448.639984</ele>
        <time>2012-08-11T16:09:15Z</time>
      </trkpt>
      <trkpt lat="45.22612" lon="5.34122">
        <ele>448.139984</ele>
        <time>2012-08-11T16:09:27Z</time>
      </trkpt>
      <trkpt lat="45.22663" lon="5.34081">
        <ele>445.72998</ele>
        <time>2012-08-11T16:09:39Z</time>
      </trkpt>
      <trkpt lat="45.22716" lon="5.34044">
        <ele>429.940002</ele>
        <time>2012-08-11T16:09:51Z</time>
      </trkpt>
      <trkpt lat="45.22771" lon="5.34015">
        <ele>426.779999</ele>
        <time>2012-08-11T16:10:03Z</time>
      </trkpt>
      <trkpt lat="45.22818" lon="5.3399">
        <ele>440.779999</ele>
        <time>2012-08-11T16:10:15Z</time>
      </trkpt>
      <trkpt lat="45.22865" lon="5.3396">
        <ele>455.099976</ele>
        <time>2012-08-11T16:10:27Z</time>
      </trkpt>
      <trkpt lat="45.22916" lon="5.33937">
        <ele>460.899994</ele>
        <time>2012-08-11T16:10:39Z</time>
      </trkpt>
      <trkpt lat="45.22969" lon="5.3391">
        <ele>465.5</ele>
        <time>2012-08-11T16:10:51Z</time>
      </trkpt>
      <trkpt lat="45.23027" lon="5.33888">
        <ele>457.699982</ele>
        <time>2012-08-11T16:11:03Z</time>
      </trkpt>
      <trkpt lat="45.23082" lon="5.3386">
        <ele>459.940002</ele>
        <time>2012-08-11T16:11:15Z</time>
      </trkpt>
      <trkpt lat="45.23135" lon="5.33833">
        <ele>463.5</ele>
        <time>2012-08-11T16:11:27Z</time>
      </trkpt>
      <trkpt lat="45.23191" lon="5.3379">
        <ele>468.339996</ele>
        <time>2012-08-11T16:11:39Z</time>
      </trkpt>
      <trkpt lat="45.23255" lon="5.33761">
        <ele>469.209991</ele>
        <time>2012-08-11T16:11:51Z</time>
      </trkpt>
      <trkpt lat="45.23311" lon="5.33728">
        <ele>462.819977</ele>
        <time>2012-08-11T16:12:03Z</time>
      </trkpt>
      <trkpt lat="45.23363" lon="5.33677">
        <ele>468.75</ele>
        <time>2012-08-11T16:12:15Z</time>
      </trkpt>
      <trkpt lat="45.2342" lon="5.33634">
        <ele>478.089996</ele>
        <time>2012-08-11T16:12:27Z</time>
      </trkpt>
      <trkpt lat="45.23499" lon="5.33647">
        <ele>459.349976</ele>
        <time>2012-08-11T16:12:39Z</time>
      </trkpt>
      <trkpt lat="45.23576" lon="5.33668">
        <ele>447.5</ele>
        <time>2012-08-11T16:12:51Z</time>
      </trkpt>
      <trkpt lat="45.23613" lon="5.33675">
        <ele>447.720001</ele>
        <time>2012-08-11T16:12:57Z</time>
      </trkpt>
      <trkpt lat="45.23648" lon="5.33675">
        <ele>448.569977</ele>
        <time>2012-08-11T16:13:03Z</time>
      </trkpt>
      <trkpt lat="45.23683" lon="5.33675">
        <ele>449.579987</ele>
        <time>2012-08-11T16:13:09Z</time>
      </trkpt>
      <trkpt lat="45.23725" lon="5.33685">
        <ele>445.089996</ele>
        <time>2012-08-11T16:13:15Z</time>
      </trkpt>
      <trkpt lat="45.2376" lon="5.33686">
        <ele>449.899994</ele>
        <time>2012-08-11T16:13:21Z</time>
      </trkpt>
      <trkpt lat="45.23801" lon="5.33695">
        <ele>443.299988</ele>
        <time>2012-08-11T16:13:27Z</time>
      </trkpt>
      <trkpt lat="45.23838" lon="5.33695">
        <ele>432.599976</ele>
        <time>2012-08-11T16:13:33Z</time>
      </trkpt>
      <trkpt lat="45.23909" lon="5.33701">
        <ele>421.809998</ele>
        <time>2012-08-11T16:13:46Z</time>
      </trkpt>
      <trkpt lat="45.23936" lon="5.33694">
        <ele>434.829987</ele>
        <time>2012-08-11T16:13:52Z</time>
      </trkpt>
      <trkpt lat="45.23987" lon="5.33674">
        <ele>455.130005</ele>
        <time>2012-08-11T16:14:04Z</time>
      </trkpt>
      <trkpt lat="45.2405" lon="5.33671">
        <ele>462.949982</ele>
        <time>2012-08-11T16:14:16Z</time>
      </trkpt>
      <trkpt lat="45.24113" lon="5.33673">
        <ele>463.880005</ele>
        <time>2012-08-11T16:14:28Z</time>
      </trkpt>
      <trkpt lat="45.24161" lon="5.33684">
        <ele>475.079987</ele>
        <time>2012-08-11T16:14:40Z</time>
      </trkpt>
      <trkpt lat="45.24199" lon="5.33726">
        <ele>496.47998</ele>
        <time>2012-08-11T16:14:52Z</time>
      </trkpt>
      <trkpt lat="45.2423" lon="5.33784">
        <ele>494.029999</ele>
        <time>2012-08-11T16:15:04Z</time>
      </trkpt>
      <trkpt lat="45.24265" lon="5.3383">
        <ele>490.449982</ele>
        <time>2012-08-11T16:15:16Z</time>
      </trkpt>
      <trkpt lat="45.24305" lon="5.33835">
        <ele>490.839996</ele>
        <time>2012-08-11T16:15:28Z</time>
      </trkpt>
      <trkpt lat="45.24336" lon="5.33787">
        <ele>478.859985</ele>
        <time>2012-08-11T16:15:40Z</time>
      </trkpt>
      <trkpt lat="45.24359" lon="5.33735">
        <ele>467.579987</ele>
        <time>2012-08-11T16:15:52Z</time>
      </trkpt>
      <trkpt lat="45.24381" lon="5.33699">
        <ele>485.759979</ele>
        <time>2012-08-11T16:16:04Z</time>
      </trkpt>
      <trkpt lat="45.2442" lon="5.33722">
        <ele>486.649994</ele>
        <time>2012-08-11T16:16:16Z</time>
      </trkpt>
      <trkpt lat="45.24467" lon="5.3373">
        <ele>488.73999</ele>
        <time>2012-08-11T16:16:28Z</time>
      </trkpt>
      <trkpt lat="45.24517" lon="5.33731">
        <ele>490.279999</ele>
        <time>2012-08-11T16:16:40Z</time>
      </trkpt>
      <trkpt lat="45.24566" lon="5.33729">
        <ele>499.329987</ele>
        <time>2012-08-11T16:16:52Z</time>
      </trkpt>
      <trkpt lat="45.24608" lon="5.3373">
        <ele>497.470001</ele>
        <time>2012-08-11T16:17:04Z</time>
      </trkpt>
      <trkpt lat="45.24652" lon="5.33783">
        <ele>507.819977</ele>
        <time>2012-08-11T16:17:16Z</time>
      </trkpt>
      <trkpt lat="45.24699" lon="5.33772">
        <ele>509.209991</ele>
        <time>2012-08-11T16:17:28Z</time>
      </trkpt>
      <trkpt lat="45.24744" lon="5.33736">
        <ele>506.149994</ele>
        <time>2012-08-11T16:17:40Z</time>
      </trkpt>
      <trkpt lat="45.24781" lon="5.33684">
        <ele>502.819977</ele>
        <time>2012-08-11T16:17:52Z</time>
      </trkpt>
      <trkpt lat="45.24821" lon="5.33632">
        <ele>503.220001</ele>
        <time>2012-08-11T16:18:04Z</time>
      </trkpt>
      <trkpt lat="45.24871" lon="5.33613">
        <ele>504.139984</ele>
        <time>2012-08-11T16:18:16Z</time>
      </trkpt>
      <trkpt lat="45.24919" lon="5.33597">
        <ele>502.349976</ele>
        <time>2012-08-11T16:18:28Z</time>
      </trkpt>
      <trkpt lat="45.24965" lon="5.33594">
        <ele>506.129974</ele>
        <time>2012-08-11T16:18:40Z</time>
      </trkpt>
      <trkpt lat="45.25011" lon="5.33618">
        <ele>511.649994</ele>
        <time>2012-08-11T16:18:52Z</time>
      </trkpt>
      <trkpt lat="45.25046" lon="5.33662">
        <ele>509.970001</ele>
        <time>2012-08-11T16:19:04Z</time>
      </trkpt>
      <trkpt lat="45.25082" lon="5.33707">
        <ele>520.820007</ele>
        <time>2012-08-11T16:19:16Z</time>
      </trkpt>
      <trkpt lat="45.25122" lon="5.33751">
        <ele>526.190002</ele>
        <time>2012-08-11T16:19:28Z</time>
      </trkpt>
      <trkpt lat="45.25153" lon="5.338">
        <ele>539.26001</ele>
        <time>2012-08-11T16:19:40Z</time>
      </trkpt>
      <trkpt lat="45.25172" lon="5.33868">
        <ele>538.5</ele>
        <time>2012-08-11T16:19:52Z</time>
      </trkpt>
      <trkpt lat="45.25198" lon="5.3392">
        <ele>533.26001</ele>
        <time>2012-08-11T16:20:04Z</time>
      </trkpt>
      <trkpt lat="45.25234" lon="5.33936">
        <ele>535.339966</ele>
        <time>2012-08-11T16:20:16Z</time>
      </trkpt>
      <trkpt lat="45.25277" lon="5.33873">
        <ele>523.719971</ele>
        <time>2012-08-11T16:20:28Z</time>
      </trkpt>
      <trkpt lat="45.25338" lon="5.33835">
        <ele>522.859985</ele>
        <time>2012-08-11T16:20:40Z</time>
      </trkpt>
      <trkpt lat="45.25369" lon="5.33754">
        <ele>528.070007</ele>
        <time>2012-08-11T16:20:52Z</time>
      </trkpt>
      <trkpt lat="45.25403" lon="5.33668">
        <ele>519.72998</ele>
        <time>2012-08-11T16:21:04Z</time>
      </trkpt>
      <trkpt lat="45.25433" lon="5.33643">
        <ele>522.039978</ele>
        <time>2012-08-11T16:21:10Z</time>
      </trkpt>
      <trkpt lat="45.25507" lon="5.33645">
        <ele>524.309998</ele>
        <time>2012-08-11T16:21:22Z</time>
      </trkpt>
      <trkpt lat="45.25583" lon="5.33662">
        <ele>523.299988</ele>
        <time>2012-08-11T16:21:34Z</time>
      </trkpt>
      <trkpt lat="45.25612" lon="5.3368">
        <ele>522.070007</ele>
        <time>2012-08-11T16:21:40Z</time>
      </trkpt>
      <trkpt lat="45.25641" lon="5.33684">
        <ele>523.169983</ele>
        <time>2012-08-11T16:21:46Z</time>
      </trkpt>
      <trkpt lat="45.25682" lon="5.33686">
        <ele>536.109985</ele>
        <time>2012-08-11T16:21:59Z</time>
      </trkpt>
      <trkpt lat="45.25748" lon="5.33794">
        <ele>526.369995</ele>
        <time>2012-08-11T16:22:12Z</time>
      </trkpt>
      <trkpt lat="45.25723" lon="5.33881">
        <ele>529.649963</ele>
        <time>2012-08-11T16:22:25Z</time>
      </trkpt>
      <trkpt lat="45.25752" lon="5.33941">
        <ele>535.219971</ele>
        <time>2012-08-11T16:22:38Z</time>
      </trkpt>
      <trkpt lat="45.25818" lon="5.33946">
        <ele>533.23999</ele>
        <time>2012-08-11T16:22:51Z</time>
      </trkpt>
      <trkpt lat="45.2587" lon="5.3391">
        <ele>534.179993</ele>
        <time>2012-08-11T16:23:04Z</time>
      </trkpt>
      <trkpt lat="45.25919" lon="5.33845">
        <ele>531.359985</ele>
        <time>2012-08-11T16:23:17Z</time>
      </trkpt>
      <trkpt lat="45.25989" lon="5.33854">
        <ele>535.640015</ele>
        <time>2012-08-11T16:23:30Z</time>
      </trkpt>
      <trkpt lat="45.26035" lon="5.33918">
        <ele>543.019958</ele>
        <time>2012-08-11T16:23:43Z</time>
      </trkpt>
      <trkpt lat="45.26059" lon="5.34005">
        <ele>547.109985</ele>
        <time>2012-08-11T16:23:56Z</time>
      </trkpt>
      <trkpt lat="45.2607" lon="5.34057">
        <ele>547.349976</ele>
        <time>2012-08-11T16:24:09Z</time>
      </trkpt>
      <trkpt lat="45.2607" lon="5.34056">
        <ele>546.219971</ele>
        <time>2012-08-11T16:24:22Z</time>
      </trkpt>
      <trkpt lat="45.2607" lon="5.34056">
        <ele>546.219971</ele>
        <time>2012-08-11T16:24:35Z</time>
      </trkpt>
      <trkpt lat="45.2607" lon="5.34056">
        <ele>546.219971</ele>
        <time>2012-08-11T16:24:48Z</time>
      </trkpt>
      <trkpt lat="45.26077" lon="5.34059">
        <ele>565.070007</ele>
        <time>2012-08-11T16:25:01Z</time>
      </trkpt>
      <trkpt lat="45.26112" lon="5.34133">
        <ele>553.839966</ele>
        <time>2012-08-11T16:25:14Z</time>
      </trkpt>
      <trkpt lat="45.26192" lon="5.34198">
        <ele>545.820007</ele>
        <time>2012-08-11T16:25:27Z</time>
      </trkpt>
      <trkpt lat="45.2624" lon="5.34191">
        <ele>539.799988</ele>
        <time>2012-08-11T16:25:33Z</time>
      </trkpt>
      <trkpt lat="45.26288" lon="5.34167">
        <ele>534.070007</ele>
        <time>2012-08-11T16:25:39Z</time>
      </trkpt>
      <trkpt lat="45.26338" lon="5.34141">
        <ele>531.47998</ele>
        <time>2012-08-11T16:25:45Z</time>
      </trkpt>
      <trkpt lat="45.26382" lon="5.34093">
        <ele>536.419983</ele>
        <time>2012-08-11T16:25:51Z</time>
      </trkpt>
      <trkpt lat="45.2641" lon="5.34021">
        <ele>533.589966</ele>
        <time>2012-08-11T16:25:57Z</time>
      </trkpt>
      <trkpt lat="45.26452" lon="5.3398">
        <ele>532.830017</ele>
        <time>2012-08-11T16:26:03Z</time>
      </trkpt>
      <trkpt lat="45.26505" lon="5.34028">
        <ele>533.039978</ele>
        <time>2012-08-11T16:26:09Z</time>
      </trkpt>
      <trkpt lat="45.26529" lon="5.34109">
        <ele>523.339966</ele>
        <time>2012-08-11T16:26:15Z</time>
      </trkpt>
      <trkpt lat="45.26545" lon="5.34189">
        <ele>515.919983</ele>
        <time>2012-08-11T16:26:21Z</time>
      </trkpt>
      <trkpt lat="45.26563" lon="5.34264">
        <ele>521.330017</ele>
        <time>2012-08-11T16:26:27Z</time>
      </trkpt>
      <trkpt lat="45.26605" lon="5.34306">
        <ele>524.190002</ele>
        <time>2012-08-11T16:26:33Z</time>
      </trkpt>
      <trkpt lat="45.26658" lon="5.34328">
        <ele>524.630005</ele>
        <time>2012-08-11T16:26:39Z</time>
      </trkpt>
      <trkpt lat="45.26709" lon="5.34366">
        <ele>526.98999</ele>
        <time>2012-08-11T16:26:45Z</time>
      </trkpt>
      <trkpt lat="45.26748" lon="5.34423">
        <ele>529.649963</ele>
        <time>2012-08-11T16:26:51Z</time>
      </trkpt>
      <trkpt lat="45.26779" lon="5.34473">
        <ele>529.98999</ele>
        <time>2012-08-11T16:26:57Z</time>
      </trkpt>
      <trkpt lat="45.26802" lon="5.34512">
        <ele>532.899963</ele>
        <time>2012-08-11T16:27:03Z</time>
      </trkpt>
      <trkpt lat="45.26876" lon="5.34522">
        <ele>518.359985</ele>
        <time>2012-08-11T16:27:16Z</time>
      </trkpt>
      <trkpt lat="45.26939" lon="5.34491">
        <ele>512.080017</ele>
        <time>2012-08-11T16:27:29Z</time>
      </trkpt>
      <trkpt lat="45.26995" lon="5.34472">
        <ele>517.630005</ele>
        <time>2012-08-11T16:27:42Z</time>
      </trkpt>
      <trkpt lat="45.2705" lon="5.34496">
        <ele>525.390015</ele>
        <time>2012-08-11T16:27:55Z</time>
      </trkpt>
      <trkpt lat="45.27089" lon="5.34532">
        <ele>532.820007</ele>
        <time>2012-08-11T16:28:08Z</time>
      </trkpt>
      <trkpt lat="45.27129" lon="5.3456">
        <ele>528.539978</ele>
        <time>2012-08-11T16:28:21Z</time>
      </trkpt>
      <trkpt lat="45.27207" lon="5.34574">
        <ele>529.070007</ele>
        <time>2012-08-11T16:28:34Z</time>
      </trkpt>
      <trkpt lat="45.27271" lon="5.34581">
        <ele>537.200012</ele>
        <time>2012-08-11T16:28:47Z</time>
      </trkpt>
      <trkpt lat="45.27318" lon="5.34542">
        <ele>531.909973</ele>
        <time>2012-08-11T16:29:00Z</time>
      </trkpt>
      <trkpt lat="45.27324" lon="5.34455">
        <ele>538.709961</ele>
        <time>2012-08-11T16:29:13Z</time>
      </trkpt>
      <trkpt lat="45.27363" lon="5.34411">
        <ele>538.890015</ele>
        <time>2012-08-11T16:29:26Z</time>
      </trkpt>
      <trkpt lat="45.27402" lon="5.34468">
        <ele>545.97998</ele>
        <time>2012-08-11T16:29:39Z</time>
      </trkpt>
      <trkpt lat="45.2742" lon="5.34551">
        <ele>547.929993</ele>
        <time>2012-08-11T16:29:52Z</time>
      </trkpt>
      <trkpt lat="45.27452" lon="5.34618">
        <ele>553.809998</ele>
        <time>2012-08-11T16:30:05Z</time>
      </trkpt>
      <trkpt lat="45.27512" lon="5.3461">
        <ele>550.630005</ele>
        <time>2012-08-11T16:30:18Z</time>
      </trkpt>
      <trkpt lat="45.27568" lon="5.34599">
        <ele>558.219971</ele>
        <time>2012-08-11T16:30:31Z</time>
      </trkpt>
      <trkpt lat="45.27626" lon="5.34612">
        <ele>562.640015</ele>
        <time>2012-08-11T16:30:44Z</time>
      </trkpt>
      <trkpt lat="45.27683" lon="5.34623">
        <ele>560.589966</ele>
        <time>2012-08-11T16:30:57Z</time>
      </trkpt>
      <trkpt lat="45.27736" lon="5.34589">
        <ele>556.820007</ele>
        <time>2012-08-11T16:31:10Z</time>
      </trkpt>
      <trkpt lat="45.27785" lon="5.34549">
        <ele>554.559998</ele>
        <time>2012-08-11T16:31:23Z</time>
      </trkpt>
      <trkpt lat="45.27831" lon="5.34496">
        <ele>550.700012</ele>
        <time>2012-08-11T16:31:36Z</time>
      </trkpt>
      <trkpt lat="45.27874" lon="5.34448">
        <ele>555.049988</ele>
        <time>2012-08-11T16:31:49Z</time>
      </trkpt>
      <trkpt lat="45.27914" lon="5.34394">
        <ele>557.309998</ele>
        <time>2012-08-11T16:32:02Z</time>
      </trkpt>
      <trkpt lat="45.27954" lon="5.34348">
        <ele>561.789978</ele>
        <time>2012-08-11T16:32:15Z</time>
      </trkpt>
      <trkpt lat="45.27956" lon="5.34423">
        <ele>576.269958</ele>
        <time>2012-08-11T16:32:28Z</time>
      </trkpt>
      <trkpt lat="45.27932" lon="5.34483">
        <ele>588.309998</ele>
        <time>2012-08-11T16:32:40Z</time>
      </trkpt>
      <trkpt lat="45.2792" lon="5.34555">
        <ele>602.969971</ele>
        <time>2012-08-11T16:32:53Z</time>
      </trkpt>
      <trkpt lat="45.27911" lon="5.34617">
        <ele>601.919983</ele>
        <time>2012-08-11T16:33:05Z</time>
      </trkpt>
      <trkpt lat="45.27899" lon="5.34683">
        <ele>604.190002</ele>
        <time>2012-08-11T16:33:18Z</time>
      </trkpt>
      <trkpt lat="45.27924" lon="5.34736">
        <ele>596.98999</ele>
        <time>2012-08-11T16:33:30Z</time>
      </trkpt>
      <trkpt lat="45.27957" lon="5.348">
        <ele>599.709961</ele>
        <time>2012-08-11T16:33:43Z</time>
      </trkpt>
      <trkpt lat="45.27959" lon="5.34864">
        <ele>604.47998</ele>
        <time>2012-08-11T16:33:55Z</time>
      </trkpt>
      <trkpt lat="45.27955" lon="5.34927">
        <ele>601.97998</ele>
        <time>2012-08-11T16:34:08Z</time>
      </trkpt>
      <trkpt lat="45.27937" lon="5.34974">
        <ele>591.330017</ele>
        <time>2012-08-11T16:34:21Z</time>
      </trkpt>
      <trkpt lat="45.27961" lon="5.3503">
        <ele>601.890015</ele>
        <time>2012-08-11T16:34:34Z</time>
      </trkpt>
      <trkpt lat="45.28002" lon="5.35052">
        <ele>614.23999</ele>
        <time>2012-08-11T16:34:47Z</time>
      </trkpt>
      <trkpt lat="45.28045" lon="5.35049">
        <ele>616.700012</ele>
        <time>2012-08-11T16:35:00Z</time>
      </trkpt>
      <trkpt lat="45.28088" lon="5.35051">
        <ele>612.059998</ele>
        <time>2012-08-11T16:35:13Z</time>
      </trkpt>
      <trkpt lat="45.28132" lon="5.35061">
        <ele>614.559998</ele>
        <time>2012-08-11T16:35:26Z</time>
      </trkpt>
      <trkpt lat="45.28175" lon="5.35069">
        <ele>617.809998</ele>
        <time>2012-08-11T16:35:39Z</time>
      </trkpt>
      <trkpt lat="45.28217" lon="5.35079">
        <ele>625.329956</ele>
        <time>2012-08-11T16:35:52Z</time>
      </trkpt>
      <trkpt lat="45.2826" lon="5.35098">
        <ele>628.179993</ele>
        <time>2012-08-11T16:36:05Z</time>
      </trkpt>
      <trkpt lat="45.28294" lon="5.35137">
        <ele>626.029968</ele>
        <time>2012-08-11T16:36:18Z</time>
      </trkpt>
      <trkpt lat="45.2832" lon="5.35191">
        <ele>628.359985</ele>
        <time>2012-08-11T16:36:31Z</time>
      </trkpt>
      <trkpt lat="45.28349" lon="5.35236">
        <ele>625.169983</ele>
        <time>2012-08-11T16:36:44Z</time>
      </trkpt>
      <trkpt lat="45.28395" lon="5.35242">
        <ele>632.149963</ele>
        <time>2012-08-11T16:36:57Z</time>
      </trkpt>
      <trkpt lat="45.28458" lon="5.35253">
        <ele>636.089966</ele>
        <time>2012-08-11T16:37:10Z</time>
      </trkpt>
      <trkpt lat="45.28532" lon="5.35259">
        <ele>636.179993</ele>
        <time>2012-08-11T16:37:23Z</time>
      </trkpt>
      <trkpt lat="45.28577" lon="5.35263">
        <ele>629.859985</ele>
        <time>2012-08-11T16:37:29Z</time>
      </trkpt>
      <trkpt lat="45.28621" lon="5.35278">
        <ele>623.169983</ele>
        <time>2012-08-11T16:37:35Z</time>
      </trkpt>
      <trkpt lat="45.28663" lon="5.35304">
        <ele>616.890015</ele>
        <time>2012-08-11T16:37:41Z</time>
      </trkpt>
      <trkpt lat="45.2871" lon="5.35309">
        <ele>609.599976</ele>
        <time>2012-08-11T16:37:47Z</time>
      </trkpt>
      <trkpt lat="45.2876" lon="5.35306">
        <ele>599.080017</ele>
        <time>2012-08-11T16:37:53Z</time>
      </trkpt>
      <trkpt lat="45.28803" lon="5.35269">
        <ele>591.630005</ele>
        <time>2012-08-11T16:37:59Z</time>
      </trkpt>
      <trkpt lat="45.28848" lon="5.35232">
        <ele>589.669983</ele>
        <time>2012-08-11T16:38:05Z</time>
      </trkpt>
      <trkpt lat="45.28902" lon="5.35235">
        <ele>591.130005</ele>
        <time>2012-08-11T16:38:11Z</time>
      </trkpt>
      <trkpt lat="45.28953" lon="5.35209">
        <ele>591.820007</ele>
        <time>2012-08-11T16:38:17Z</time>
      </trkpt>
      <trkpt lat="45.28962" lon="5.35118">
        <ele>594.97998</ele>
        <time>2012-08-11T16:38:23Z</time>
      </trkpt>
      <trkpt lat="45.28993" lon="5.3504">
        <ele>600.169983</ele>
        <time>2012-08-11T16:38:29Z</time>
      </trkpt>
      <trkpt lat="45.29056" lon="5.35006">
        <ele>595.880005</ele>
        <time>2012-08-11T16:38:35Z</time>
      </trkpt>
      <trkpt lat="45.29105" lon="5.34933">
        <ele>582.709961</ele>
        <time>2012-08-11T16:38:41Z</time>
      </trkpt>
      <trkpt lat="45.29159" lon="5.34861">
        <ele>567.440002</ele>
        <time>2012-08-11T16:38:47Z</time>
      </trkpt>
      <trkpt lat="45.29219" lon="5.34805">
        <ele>553.779968</ele>
        <time>2012-08-11T16:38:53Z</time>
      </trkpt>
      <trkpt lat="45.29297" lon="5.34818">
        <ele>555.450012</ele>
        <time>2012-08-11T16:38:59Z</time>
      </trkpt>
      <trkpt lat="45.2935" lon="5.34745">
        <ele>548.529968</ele>
        <time>2012-08-11T16:39:05Z</time>
      </trkpt>
      <trkpt lat="45.29382" lon="5.34653">
        <ele>542.169983</ele>
        <time>2012-08-11T16:39:11Z</time>
      </trkpt>
      <trkpt lat="45.29422" lon="5.34571">
        <ele>540.419983</ele>
        <time>2012-08-11T16:39:17Z</time>
      </trkpt>
      <trkpt lat="45.29472" lon="5.34487">
        <ele>532.799988</ele>
        <time>2012-08-11T16:39:23Z</time>
      </trkpt>
      <trkpt lat="45.29529" lon="5.34433">
        <ele>526.140015</ele>
        <time>2012-08-11T16:39:29Z</time>
      </trkpt>
      <trkpt lat="45.29588" lon="5.34389">
        <ele>518.950012</ele>
        <time>2012-08-11T16:39:35Z</time>
      </trkpt>
      <trkpt lat="45.29649" lon="5.34356">
        <ele>517.330017</ele>
        <time>2012-08-11T16:39:41Z</time>
      </trkpt>
      <trkpt lat="45.29704" lon="5.34307">
        <ele>512.089966</ele>
        <time>2012-08-11T16:39:47Z</time>
      </trkpt>
      <trkpt lat="45.29765" lon="5.34269">
        <ele>513.529968</ele>
        <time>2012-08-11T16:39:53Z</time>
      </trkpt>
      <trkpt lat="45.29817" lon="5.34209">
        <ele>511.109985</ele>
        <time>2012-08-11T16:39:59Z</time>
      </trkpt>
      <trkpt lat="45.29884" lon="5.34199">
        <ele>508.22998</ele>
        <time>2012-08-11T16:40:05Z</time>
      </trkpt>
      <trkpt lat="45.29945" lon="5.34158">
        <ele>503.299988</ele>
        <time>2012-08-11T16:40:11Z</time>
      </trkpt>
      <trkpt lat="45.29977" lon="5.34077">
        <ele>497.23999</ele>
        <time>2012-08-11T16:40:17Z</time>
      </trkpt>
      <trkpt lat="45.30006" lon="5.33989">
        <ele>493.619995</ele>
        <time>2012-08-11T16:40:23Z</time>
      </trkpt>
      <trkpt lat="45.30048" lon="5.33911">
        <ele>489.019989</ele>
        <time>2012-08-11T16:40:29Z</time>
      </trkpt>
      <trkpt lat="45.301" lon="5.33857">
        <ele>491.599976</ele>
        <time>2012-08-11T16:40:35Z</time>
      </trkpt>
      <trkpt lat="45.30171" lon="5.33872">
        <ele>490.759979</ele>
        <time>2012-08-11T16:40:41Z</time>
      </trkpt>
      <trkpt lat="45.30244" lon="5.33886">
        <ele>485.569977</ele>
        <time>2012-08-11T16:40:47Z</time>
      </trkpt>
      <trkpt lat="45.30314" lon="5.33915">
        <ele>480.25</ele>
        <time>2012-08-11T16:40:53Z</time>
      </trkpt>
      <trkpt lat="45.30381" lon="5.33977">
        <ele>474.539978</ele>
        <time>2012-08-11T16:40:59Z</time>
      </trkpt>
      <trkpt lat="45.30451" lon="5.34009">
        <ele>469.589996</ele>
        <time>2012-08-11T16:41:05Z</time>
      </trkpt>
      <trkpt lat="45.30521" lon="5.33976">
        <ele>470.139984</ele>
        <time>2012-08-11T16:41:11Z</time>
      </trkpt>
      <trkpt lat="45.30577" lon="5.3393">
        <ele>468.819977</ele>
        <time>2012-08-11T16:41:17Z</time>
      </trkpt>
      <trkpt lat="45.30628" lon="5.33893">
        <ele>473.75</ele>
        <time>2012-08-11T16:41:23Z</time>
      </trkpt>
      <trkpt lat="45.30676" lon="5.33863">
        <ele>473.579987</ele>
        <time>2012-08-11T16:41:29Z</time>
      </trkpt>
      <trkpt lat="45.30723" lon="5.33839">
        <ele>471.019989</ele>
        <time>2012-08-11T16:41:35Z</time>
      </trkpt>
      <trkpt lat="45.30768" lon="5.33818">
        <ele>461.769989</ele>
        <time>2012-08-11T16:41:41Z</time>
      </trkpt>
      <trkpt lat="45.30813" lon="5.33799">
        <ele>458.880005</ele>
        <time>2012-08-11T16:41:47Z</time>
      </trkpt>
      <trkpt lat="45.30858" lon="5.3378">
        <ele>467.339996</ele>
        <time>2012-08-11T16:41:53Z</time>
      </trkpt>
      <trkpt lat="45.30902" lon="5.33769">
        <ele>470.220001</ele>
        <time>2012-08-11T16:41:59Z</time>
      </trkpt>
      <trkpt lat="45.30949" lon="5.33765">
        <ele>474.25</ele>
        <time>2012-08-11T16:42:05Z</time>
      </trkpt>
      <trkpt lat="45.30998" lon="5.33761">
        <ele>477.619995</ele>
        <time>2012-08-11T16:42:11Z</time>
      </trkpt>
      <trkpt lat="45.31045" lon="5.33752">
        <ele>480.359985</ele>
        <time>2012-08-11T16:42:17Z</time>
      </trkpt>
      <trkpt lat="45.31089" lon="5.33732">
        <ele>470.72998</ele>
        <time>2012-08-11T16:42:23Z</time>
      </trkpt>
      <trkpt lat="45.31132" lon="5.33712">
        <ele>467.160004</ele>
        <time>2012-08-11T16:42:29Z</time>
      </trkpt>
      <trkpt lat="45.31174" lon="5.33692">
        <ele>471.449982</ele>
        <time>2012-08-11T16:42:35Z</time>
      </trkpt>
      <trkpt lat="45.31215" lon="5.33671">
        <ele>473.579987</ele>
        <time>2012-08-11T16:42:41Z</time>
      </trkpt>
      <trkpt lat="45.3126" lon="5.3365">
        <ele>468.809998</ele>
        <time>2012-08-11T16:42:47Z</time>
      </trkpt>
      <trkpt lat="45.31304" lon="5.3363">
        <ele>468.919983</ele>
        <time>2012-08-11T16:42:53Z</time>
      </trkpt>
      <trkpt lat="45.3135" lon="5.33615">
        <ele>458.079987</ele>
        <time>2012-08-11T16:42:59Z</time>
      </trkpt>
      <trkpt lat="45.31397" lon="5.33624">
        <ele>455.690002</ele>
        <time>2012-08-11T16:43:05Z</time>
      </trkpt>
      <trkpt lat="45.31443" lon="5.3363">
        <ele>456.529999</ele>
        <time>2012-08-11T16:43:11Z</time>
      </trkpt>
      <trkpt lat="45.31487" lon="5.33637">
        <ele>458.779999</ele>
        <time>2012-08-11T16:43:17Z</time>
      </trkpt>
      <trkpt lat="45.31532" lon="5.33644">
        <ele>464.220001</ele>
        <time>2012-08-11T16:43:23Z</time>
      </trkpt>
      <trkpt lat="45.31579" lon="5.33649">
        <ele>466.279999</ele>
        <time>2012-08-11T16:43:29Z</time>
      </trkpt>
      <trkpt lat="45.31624" lon="5.33655">
        <ele>468.48999</ele>
        <time>2012-08-11T16:43:35Z</time>
      </trkpt>
      <trkpt lat="45.31669" lon="5.33671">
        <ele>467.529999</ele>
        <time>2012-08-11T16:43:41Z</time>
      </trkpt>
      <trkpt lat="45.31712" lon="5.33699">
        <ele>449.48999</ele>
        <time>2012-08-11T16:43:47Z</time>
      </trkpt>
      <trkpt lat="45.31754" lon="5.33731">
        <ele>444.389984</ele>
        <time>2012-08-11T16:43:53Z</time>
      </trkpt>
      <trkpt lat="45.31796" lon="5.33759">
        <ele>437.769989</ele>
        <time>2012-08-11T16:43:59Z</time>
      </trkpt>
      <trkpt lat="45.31836" lon="5.33791">
        <ele>435.309998</ele>
        <time>2012-08-11T16:44:05Z</time>
      </trkpt>
      <trkpt lat="45.31876" lon="5.33823">
        <ele>440.789978</ele>
        <time>2012-08-11T16:44:11Z</time>
      </trkpt>
      <trkpt lat="45.31912" lon="5.33858">
        <ele>437.039978</ele>
        <time>2012-08-11T16:44:17Z</time>
      </trkpt>
      <trkpt lat="45.31947" lon="5.33893">
        <ele>439.209991</ele>
        <time>2012-08-11T16:44:23Z</time>
      </trkpt>
      <trkpt lat="45.31984" lon="5.33924">
        <ele>435.809998</ele>
        <time>2012-08-11T16:44:29Z</time>
      </trkpt>
      <trkpt lat="45.32028" lon="5.33939">
        <ele>435.440002</ele>
        <time>2012-08-11T16:44:35Z</time>
      </trkpt>
      <trkpt lat="45.32071" lon="5.33956">
        <ele>437.97998</ele>
        <time>2012-08-11T16:44:41Z</time>
      </trkpt>
      <trkpt lat="45.32114" lon="5.3396">
        <ele>442.690002</ele>
        <time>2012-08-11T16:44:47Z</time>
      </trkpt>
      <trkpt lat="45.32159" lon="5.33958">
        <ele>442.869995</ele>
        <time>2012-08-11T16:44:53Z</time>
      </trkpt>
      <trkpt lat="45.32201" lon="5.33948">
        <ele>441.419983</ele>
        <time>2012-08-11T16:44:59Z</time>
      </trkpt>
      <trkpt lat="45.32241" lon="5.33941">
        <ele>438.470001</ele>
        <time>2012-08-11T16:45:05Z</time>
      </trkpt>
      <trkpt lat="45.32284" lon="5.33937">
        <ele>437.919983</ele>
        <time>2012-08-11T16:45:11Z</time>
      </trkpt>
      <trkpt lat="45.32328" lon="5.33937">
        <ele>438.779999</ele>
        <time>2012-08-11T16:45:17Z</time>
      </trkpt>
      <trkpt lat="45.32349" lon="5.33948">
        <ele>439.509979</ele>
        <time>2012-08-11T16:45:23Z</time>
      </trkpt>
      <trkpt lat="45.32361" lon="5.3403">
        <ele>437.769989</ele>
        <time>2012-08-11T16:45:36Z</time>
      </trkpt>
      <trkpt lat="45.32385" lon="5.34152">
        <ele>429.619995</ele>
        <time>2012-08-11T16:45:49Z</time>
      </trkpt>
      <trkpt lat="45.32377" lon="5.34225">
        <ele>421.869995</ele>
        <time>2012-08-11T16:45:55Z</time>
      </trkpt>
      <trkpt lat="45.32347" lon="5.34303">
        <ele>416.889984</ele>
        <time>2012-08-11T16:46:01Z</time>
      </trkpt>
      <trkpt lat="45.32308" lon="5.34366">
        <ele>411.72998</ele>
        <time>2012-08-11T16:46:07Z</time>
      </trkpt>
      <trkpt lat="45.32308" lon="5.34425">
        <ele>411.880005</ele>
        <time>2012-08-11T16:46:13Z</time>
      </trkpt>
      <trkpt lat="45.32295" lon="5.34513">
        <ele>419.869995</ele>
        <time>2012-08-11T16:46:26Z</time>
      </trkpt>
      <trkpt lat="45.32264" lon="5.34592">
        <ele>423.289978</ele>
        <time>2012-08-11T16:46:39Z</time>
      </trkpt>
      <trkpt lat="45.32229" lon="5.3467">
        <ele>426.109985</ele>
        <time>2012-08-11T16:46:52Z</time>
      </trkpt>
      <trkpt lat="45.32201" lon="5.34741">
        <ele>431.299988</ele>
        <time>2012-08-11T16:47:05Z</time>
      </trkpt>
      <trkpt lat="45.32185" lon="5.34822">
        <ele>427.73999</ele>
        <time>2012-08-11T16:47:18Z</time>
      </trkpt>
      <trkpt lat="45.32178" lon="5.34911">
        <ele>425.98999</ele>
        <time>2012-08-11T16:47:31Z</time>
      </trkpt>
      <trkpt lat="45.32177" lon="5.34999">
        <ele>429.549988</ele>
        <time>2012-08-11T16:47:44Z</time>
      </trkpt>
      <trkpt lat="45.32185" lon="5.35088">
        <ele>426.029999</ele>
        <time>2012-08-11T16:47:57Z</time>
      </trkpt>
      <trkpt lat="45.32206" lon="5.35176">
        <ele>427.209991</ele>
        <time>2012-08-11T16:48:10Z</time>
      </trkpt>
      <trkpt lat="45.32248" lon="5.35283">
        <ele>433.429993</ele>
        <time>2012-08-11T16:48:23Z</time>
      </trkpt>
      <trkpt lat="45.32242" lon="5.35333">
        <ele>430.380005</ele>
        <time>2012-08-11T16:48:29Z</time>
      </trkpt>
      <trkpt lat="45.32203" lon="5.35395">
        <ele>423.449982</ele>
        <time>2012-08-11T16:48:41Z</time>
      </trkpt>
      <trkpt lat="45.322" lon="5.35468">
        <ele>429.809998</ele>
        <time>2012-08-11T16:48:53Z</time>
      </trkpt>
      <trkpt lat="45.32232" lon="5.35525">
        <ele>436.97998</ele>
        <time>2012-08-11T16:49:05Z</time>
      </trkpt>
      <trkpt lat="45.32243" lon="5.356">
        <ele>443.25</ele>
        <time>2012-08-11T16:49:17Z</time>
      </trkpt>
      <trkpt lat="45.32243" lon="5.35685">
        <ele>442.269989</ele>
        <time>2012-08-11T16:49:29Z</time>
      </trkpt>
      <trkpt lat="45.32252" lon="5.35774">
        <ele>443.5</ele>
        <time>2012-08-11T16:49:41Z</time>
      </trkpt>
      <trkpt lat="45.32243" lon="5.35858">
        <ele>445.019989</ele>
        <time>2012-08-11T16:49:53Z</time>
      </trkpt>
      <trkpt lat="45.32236" lon="5.35941">
        <ele>446.809998</ele>
        <time>2012-08-11T16:50:05Z</time>
      </trkpt>
      <trkpt lat="45.32238" lon="5.3603">
        <ele>446.299988</ele>
        <time>2012-08-11T16:50:17Z</time>
      </trkpt>
      <trkpt lat="45.3223" lon="5.36116">
        <ele>449.399994</ele>
        <time>2012-08-11T16:50:29Z</time>
      </trkpt>
      <trkpt lat="45.32211" lon="5.36205">
        <ele>449.72998</ele>
        <time>2012-08-11T16:50:41Z</time>
      </trkpt>
      <trkpt lat="45.32189" lon="5.36296">
        <ele>446.440002</ele>
        <time>2012-08-11T16:50:53Z</time>
      </trkpt>
      <trkpt lat="45.32186" lon="5.36351">
        <ele>446.109985</ele>
        <time>2012-08-11T16:50:59Z</time>
      </trkpt>
      <trkpt lat="45.32186" lon="5.36414">
        <ele>447.839996</ele>
        <time>2012-08-11T16:51:05Z</time>
      </trkpt>
      <trkpt lat="45.32184" lon="5.36481">
        <ele>448.179993</ele>
        <time>2012-08-11T16:51:11Z</time>
      </trkpt>
      <trkpt lat="45.32204" lon="5.36547">
        <ele>449.47998</ele>
        <time>2012-08-11T16:51:17Z</time>
      </trkpt>
      <trkpt lat="45.32224" lon="5.36611">
        <ele>447.410004</ele>
        <time>2012-08-11T16:51:23Z</time>
      </trkpt>
      <trkpt lat="45.32226" lon="5.36672">
        <ele>446.549988</ele>
        <time>2012-08-11T16:51:29Z</time>
      </trkpt>
      <trkpt lat="45.32212" lon="5.3672">
        <ele>449.470001</ele>
        <time>2012-08-11T16:51:35Z</time>
      </trkpt>
      <trkpt lat="45.32187" lon="5.36743">
        <ele>455.959991</ele>
        <time>2012-08-11T16:51:48Z</time>
      </trkpt>
      <trkpt lat="45.32179" lon="5.36763">
        <ele>451.720001</ele>
        <time>2012-08-11T16:52:01Z</time>
      </trkpt>
      <trkpt lat="45.32144" lon="5.36809">
        <ele>455.23999</ele>
        <time>2012-08-11T16:52:14Z</time>
      </trkpt>
      <trkpt lat="45.32105" lon="5.3685">
        <ele>460.72998</ele>
        <time>2012-08-11T16:52:27Z</time>
      </trkpt>
      <trkpt lat="45.32067" lon="5.3689">
        <ele>466.190002</ele>
        <time>2012-08-11T16:52:40Z</time>
      </trkpt>
      <trkpt lat="45.32032" lon="5.36932">
        <ele>472.089996</ele>
        <time>2012-08-11T16:52:53Z</time>
      </trkpt>
      <trkpt lat="45.31996" lon="5.36968">
        <ele>469.190002</ele>
        <time>2012-08-11T16:53:06Z</time>
      </trkpt>
      <trkpt lat="45.31963" lon="5.37">
        <ele>476.849976</ele>
        <time>2012-08-11T16:53:19Z</time>
      </trkpt>
      <trkpt lat="45.31932" lon="5.37038">
        <ele>479.459991</ele>
        <time>2012-08-11T16:53:32Z</time>
      </trkpt>
      <trkpt lat="45.319" lon="5.37074">
        <ele>480.199982</ele>
        <time>2012-08-11T16:53:45Z</time>
      </trkpt>
      <trkpt lat="45.31869" lon="5.37115">
        <ele>486.559998</ele>
        <time>2012-08-11T16:53:58Z</time>
      </trkpt>
      <trkpt lat="45.31837" lon="5.37153">
        <ele>488.470001</ele>
        <time>2012-08-11T16:54:11Z</time>
      </trkpt>
      <trkpt lat="45.31818" lon="5.37202">
        <ele>491.049988</ele>
        <time>2012-08-11T16:54:24Z</time>
      </trkpt>
      <trkpt lat="45.31821" lon="5.37259">
        <ele>498.389984</ele>
        <time>2012-08-11T16:54:37Z</time>
      </trkpt>
      <trkpt lat="45.3182" lon="5.37317">
        <ele>498.649994</ele>
        <time>2012-08-11T16:54:50Z</time>
      </trkpt>
      <trkpt lat="45.31806" lon="5.37373">
        <ele>498.049988</ele>
        <time>2012-08-11T16:55:03Z</time>
      </trkpt>
      <trkpt lat="45.31786" lon="5.37426">
        <ele>501.379974</ele>
        <time>2012-08-11T16:55:16Z</time>
      </trkpt>
      <trkpt lat="45.31765" lon="5.37477">
        <ele>507.379974</ele>
        <time>2012-08-11T16:55:29Z</time>
      </trkpt>
      <trkpt lat="45.31731" lon="5.37511">
        <ele>512.98999</ele>
        <time>2012-08-11T16:55:42Z</time>
      </trkpt>
      <trkpt lat="45.31689" lon="5.37531">
        <ele>513.380005</ele>
        <time>2012-08-11T16:55:55Z</time>
      </trkpt>
      <trkpt lat="45.31648" lon="5.37552">
        <ele>518.98999</ele>
        <time>2012-08-11T16:56:08Z</time>
      </trkpt>
      <trkpt lat="45.31615" lon="5.37579">
        <ele>528.469971</ele>
        <time>2012-08-11T16:56:21Z</time>
      </trkpt>
      <trkpt lat="45.31585" lon="5.37616">
        <ele>534.200012</ele>
        <time>2012-08-11T16:56:34Z</time>
      </trkpt>
      <trkpt lat="45.31562" lon="5.37657">
        <ele>536.219971</ele>
        <time>2012-08-11T16:56:47Z</time>
      </trkpt>
      <trkpt lat="45.31524" lon="5.37692">
        <ele>527.820007</ele>
        <time>2012-08-11T16:57:00Z</time>
      </trkpt>
      <trkpt lat="45.31486" lon="5.37723">
        <ele>525.299988</ele>
        <time>2012-08-11T16:57:13Z</time>
      </trkpt>
      <trkpt lat="45.3145" lon="5.37752">
        <ele>532.409973</ele>
        <time>2012-08-11T16:57:25Z</time>
      </trkpt>
      <trkpt lat="45.31436" lon="5.37806">
        <ele>537.119995</ele>
        <time>2012-08-11T16:57:38Z</time>
      </trkpt>
      <trkpt lat="45.31456" lon="5.37864">
        <ele>540.330017</ele>
        <time>2012-08-11T16:57:50Z</time>
      </trkpt>
      <trkpt lat="45.31474" lon="5.37922">
        <ele>543.709961</ele>
        <time>2012-08-11T16:58:03Z</time>
      </trkpt>
      <trkpt lat="45.31472" lon="5.37979">
        <ele>541.039978</ele>
        <time>2012-08-11T16:58:15Z</time>
      </trkpt>
      <trkpt lat="45.31467" lon="5.38041">
        <ele>544.029968</ele>
        <time>2012-08-11T16:58:28Z</time>
      </trkpt>
      <trkpt lat="45.31456" lon="5.38101">
        <ele>540.630005</ele>
        <time>2012-08-11T16:58:40Z</time>
      </trkpt>
      <trkpt lat="45.31445" lon="5.38165">
        <ele>538.019958</ele>
        <time>2012-08-11T16:58:53Z</time>
      </trkpt>
      <trkpt lat="45.31415" lon="5.3821">
        <ele>543.640015</ele>
        <time>2012-08-11T16:59:05Z</time>
      </trkpt>
      <trkpt lat="45.31376" lon="5.38242">
        <ele>551.339966</ele>
        <time>2012-08-11T16:59:18Z</time>
      </trkpt>
      <trkpt lat="45.31326" lon="5.38275">
        <ele>553.179993</ele>
        <time>2012-08-11T16:59:31Z</time>
      </trkpt>
      <trkpt lat="45.3127" lon="5.3828">
        <ele>554.909973</ele>
        <time>2012-08-11T16:59:43Z</time>
      </trkpt>
      <trkpt lat="45.3122" lon="5.38303">
        <ele>558.929993</ele>
        <time>2012-08-11T16:59:56Z</time>
      </trkpt>
      <trkpt lat="45.3118" lon="5.38328">
        <ele>564.909973</ele>
        <time>2012-08-11T17:00:08Z</time>
      </trkpt>
      <trkpt lat="45.31149" lon="5.38369">
        <ele>573.809998</ele>
        <time>2012-08-11T17:00:21Z</time>
      </trkpt>
      <trkpt lat="45.31131" lon="5.38428">
        <ele>575.320007</ele>
        <time>2012-08-11T17:00:33Z</time>
      </trkpt>
      <trkpt lat="45.31114" lon="5.38485">
        <ele>577.299988</ele>
        <time>2012-08-11T17:00:46Z</time>
      </trkpt>
      <trkpt lat="45.31112" lon="5.38542">
        <ele>577.880005</ele>
        <time>2012-08-11T17:00:58Z</time>
      </trkpt>
      <trkpt lat="45.3112" lon="5.38605">
        <ele>577.849976</ele>
        <time>2012-08-11T17:01:11Z</time>
      </trkpt>
      <trkpt lat="45.3113" lon="5.38657">
        <ele>582.929993</ele>
        <time>2012-08-11T17:01:23Z</time>
      </trkpt>
      <trkpt lat="45.3114" lon="5.38716">
        <ele>579.779968</ele>
        <time>2012-08-11T17:01:36Z</time>
      </trkpt>
      <trkpt lat="45.31149" lon="5.38773">
        <ele>583.709961</ele>
        <time>2012-08-11T17:01:49Z</time>
      </trkpt>
      <trkpt lat="45.31157" lon="5.38846">
        <ele>584.849976</ele>
        <time>2012-08-11T17:02:02Z</time>
      </trkpt>
      <trkpt lat="45.31168" lon="5.38927">
        <ele>586.070007</ele>
        <time>2012-08-11T17:02:15Z</time>
      </trkpt>
      <trkpt lat="45.31184" lon="5.39013">
        <ele>589.179993</ele>
        <time>2012-08-11T17:02:28Z</time>
      </trkpt>
      <trkpt lat="45.31216" lon="5.39088">
        <ele>588.830017</ele>
        <time>2012-08-11T17:02:41Z</time>
      </trkpt>
      <trkpt lat="45.31259" lon="5.39159">
        <ele>586.039978</ele>
        <time>2012-08-11T17:02:54Z</time>
      </trkpt>
      <trkpt lat="45.31298" lon="5.39236">
        <ele>589.649963</ele>
        <time>2012-08-11T17:03:07Z</time>
      </trkpt>
      <trkpt lat="45.31344" lon="5.39312">
        <ele>598.029968</ele>
        <time>2012-08-11T17:03:20Z</time>
      </trkpt>
      <trkpt lat="45.3134" lon="5.39298">
        <ele>599.380005</ele>
        <time>2012-08-11T17:03:33Z</time>
      </trkpt>
      <trkpt lat="45.31357" lon="5.39322">
        <ele>601.320007</ele>
        <time>2012-08-11T17:03:46Z</time>
      </trkpt>
      <trkpt lat="45.31406" lon="5.39336">
        <ele>590.51001</ele>
        <time>2012-08-11T17:03:59Z</time>
      </trkpt>
      <trkpt lat="45.3143" lon="5.3935">
        <ele>591.839966</ele>
        <time>2012-08-11T17:04:12Z</time>
      </trkpt>
      <trkpt lat="45.3143" lon="5.3935">
        <ele>591.839966</ele>
        <time>2012-08-11T17:04:25Z</time>
      </trkpt>
      <trkpt lat="45.31426" lon="5.39346">
        <ele>594.899963</ele>
        <time>2012-08-11T17:04:38Z</time>
      </trkpt>
      <trkpt lat="45.31407" lon="5.39387">
        <ele>601.48999</ele>
        <time>2012-08-11T17:04:51Z</time>
      </trkpt>
      <trkpt lat="45.31374" lon="5.39437">
        <ele>604.539978</ele>
        <time>2012-08-11T17:05:04Z</time>
      </trkpt>
      <trkpt lat="45.31361" lon="5.39455">
        <ele>604.959961</ele>
        <time>2012-08-11T17:05:17Z</time>
      </trkpt>
      <trkpt lat="45.31337" lon="5.39488">
        <ele>606.289978</ele>
        <time>2012-08-11T17:05:30Z</time>
      </trkpt>
      <trkpt lat="45.31324" lon="5.39532">
        <ele>608.089966</ele>
        <time>2012-08-11T17:05:43Z</time>
      </trkpt>
      <trkpt lat="45.31337" lon="5.3958">
        <ele>612.669983</ele>
        <time>2012-08-11T17:05:56Z</time>
      </trkpt>
      <trkpt lat="45.31349" lon="5.39622">
        <ele>612.839966</ele>
        <time>2012-08-11T17:06:09Z</time>
      </trkpt>
      <trkpt lat="45.31342" lon="5.39599">
        <ele>614.450012</ele>
        <time>2012-08-11T17:06:22Z</time>
      </trkpt>
      <trkpt lat="45.31329" lon="5.39548">
        <ele>609.839966</ele>
        <time>2012-08-11T17:06:28Z</time>
      </trkpt>
      <trkpt lat="45.31347" lon="5.39468">
        <ele>602.149963</ele>
        <time>2012-08-11T17:06:40Z</time>
      </trkpt>
      <trkpt lat="45.31387" lon="5.39415">
        <ele>599.830017</ele>
        <time>2012-08-11T17:06:46Z</time>
      </trkpt>
      <trkpt lat="45.31417" lon="5.3937">
        <ele>594.25</ele>
        <time>2012-08-11T17:06:52Z</time>
      </trkpt>
      <trkpt lat="45.3143" lon="5.39347">
        <ele>590.130005</ele>
        <time>2012-08-11T17:06:58Z</time>
      </trkpt>
      <trkpt lat="45.31507" lon="5.39401">
        <ele>590.609985</ele>
        <time>2012-08-11T17:07:11Z</time>
      </trkpt>
      <trkpt lat="45.31529" lon="5.3947">
        <ele>588.109985</ele>
        <time>2012-08-11T17:07:17Z</time>
      </trkpt>
      <trkpt lat="45.31548" lon="5.39532">
        <ele>584.690002</ele>
        <time>2012-08-11T17:07:23Z</time>
      </trkpt>
      <trkpt lat="45.31556" lon="5.39623">
        <ele>583.330017</ele>
        <time>2012-08-11T17:07:35Z</time>
      </trkpt>
      <trkpt lat="45.31589" lon="5.39679">
        <ele>579.330017</ele>
        <time>2012-08-11T17:07:41Z</time>
      </trkpt>
      <trkpt lat="45.31622" lon="5.39752">
        <ele>574.339966</ele>
        <time>2012-08-11T17:07:47Z</time>
      </trkpt>
      <trkpt lat="45.31665" lon="5.39762">
        <ele>570.359985</ele>
        <time>2012-08-11T17:07:53Z</time>
      </trkpt>
      <trkpt lat="45.31704" lon="5.39824">
        <ele>565.049988</ele>
        <time>2012-08-11T17:07:59Z</time>
      </trkpt>
      <trkpt lat="45.31686" lon="5.39896">
        <ele>560.73999</ele>
        <time>2012-08-11T17:08:05Z</time>
      </trkpt>
      <trkpt lat="45.31737" lon="5.39883">
        <ele>552.070007</ele>
        <time>2012-08-11T17:08:11Z</time>
      </trkpt>
      <trkpt lat="45.31808" lon="5.39894">
        <ele>548.080017</ele>
        <time>2012-08-11T17:08:17Z</time>
      </trkpt>
      <trkpt lat="45.31869" lon="5.39857">
        <ele>542.149963</ele>
        <time>2012-08-11T17:08:23Z</time>
      </trkpt>
      <trkpt lat="45.31944" lon="5.39888">
        <ele>535.399963</ele>
        <time>2012-08-11T17:08:29Z</time>
      </trkpt>
      <trkpt lat="45.3198" lon="5.39978">
        <ele>533.409973</ele>
        <time>2012-08-11T17:08:35Z</time>
      </trkpt>
      <trkpt lat="45.3201" lon="5.40039">
        <ele>528.830017</ele>
        <time>2012-08-11T17:08:41Z</time>
      </trkpt>
      <trkpt lat="45.32038" lon="5.40085">
        <ele>530.549988</ele>
        <time>2012-08-11T17:08:47Z</time>
      </trkpt>
      <trkpt lat="45.3206" lon="5.40132">
        <ele>532.619995</ele>
        <time>2012-08-11T17:08:53Z</time>
      </trkpt>
      <trkpt lat="45.32067" lon="5.40185">
        <ele>528.440002</ele>
        <time>2012-08-11T17:08:59Z</time>
      </trkpt>
      <trkpt lat="45.32079" lon="5.40237">
        <ele>530.48999</ele>
        <time>2012-08-11T17:09:05Z</time>
      </trkpt>
      <trkpt lat="45.32095" lon="5.40283">
        <ele>530.880005</ele>
        <time>2012-08-11T17:09:11Z</time>
      </trkpt>
      <trkpt lat="45.32119" lon="5.40382">
        <ele>535.700012</ele>
        <time>2012-08-11T17:09:23Z</time>
      </trkpt>
      <trkpt lat="45.32111" lon="5.40434">
        <ele>533.169983</ele>
        <time>2012-08-11T17:09:29Z</time>
      </trkpt>
      <trkpt lat="45.32093" lon="5.40544">
        <ele>528.940002</ele>
        <time>2012-08-11T17:09:41Z</time>
      </trkpt>
      <trkpt lat="45.32082" lon="5.406">
        <ele>532.200012</ele>
        <time>2012-08-11T17:09:47Z</time>
      </trkpt>
      <trkpt lat="45.32076" lon="5.40662">
        <ele>535.369995</ele>
        <time>2012-08-11T17:09:53Z</time>
      </trkpt>
      <trkpt lat="45.32079" lon="5.4072">
        <ele>536.599976</ele>
        <time>2012-08-11T17:09:59Z</time>
      </trkpt>
      <trkpt lat="45.32078" lon="5.40778">
        <ele>538.880005</ele>
        <time>2012-08-11T17:10:05Z</time>
      </trkpt>
      <trkpt lat="45.32068" lon="5.40834">
        <ele>536.080017</ele>
        <time>2012-08-11T17:10:11Z</time>
      </trkpt>
      <trkpt lat="45.32057" lon="5.40891">
        <ele>533.599976</ele>
        <time>2012-08-11T17:10:17Z</time>
      </trkpt>
      <trkpt lat="45.32067" lon="5.40946">
        <ele>536.450012</ele>
        <time>2012-08-11T17:10:23Z</time>
      </trkpt>
      <trkpt lat="45.32085" lon="5.40985">
        <ele>530.190002</ele>
        <time>2012-08-11T17:10:29Z</time>
      </trkpt>
      <trkpt lat="45.32118" lon="5.41045">
        <ele>536.849976</ele>
        <time>2012-08-11T17:10:41Z</time>
      </trkpt>
      <trkpt lat="45.32164" lon="5.41106">
        <ele>540.359985</ele>
        <time>2012-08-11T17:10:53Z</time>
      </trkpt>
      <trkpt lat="45.32193" lon="5.41165">
        <ele>539.869995</ele>
        <time>2012-08-11T17:10:59Z</time>
      </trkpt>
      <trkpt lat="45.32207" lon="5.41235">
        <ele>531.029968</ele>
        <time>2012-08-11T17:11:05Z</time>
      </trkpt>
      <trkpt lat="45.32277" lon="5.41225">
        <ele>520.919983</ele>
        <time>2012-08-11T17:11:11Z</time>
      </trkpt>
      <trkpt lat="45.32325" lon="5.41304">
        <ele>515.880005</ele>
        <time>2012-08-11T17:11:17Z</time>
      </trkpt>
      <trkpt lat="45.32361" lon="5.41383">
        <ele>515.269958</ele>
        <time>2012-08-11T17:11:23Z</time>
      </trkpt>
      <trkpt lat="45.32362" lon="5.41475">
        <ele>506.099976</ele>
        <time>2012-08-11T17:11:29Z</time>
      </trkpt>
      <trkpt lat="45.32386" lon="5.41554">
        <ele>501.609985</ele>
        <time>2012-08-11T17:11:35Z</time>
      </trkpt>
      <trkpt lat="45.32397" lon="5.41634">
        <ele>495.449982</ele>
        <time>2012-08-11T17:11:41Z</time>
      </trkpt>
      <trkpt lat="45.32368" lon="5.41697">
        <ele>493.639984</ele>
        <time>2012-08-11T17:11:47Z</time>
      </trkpt>
      <trkpt lat="45.32343" lon="5.41757">
        <ele>496.220001</ele>
        <time>2012-08-11T17:11:53Z</time>
      </trkpt>
      <trkpt lat="45.3232" lon="5.4181">
        <ele>498.519989</ele>
        <time>2012-08-11T17:11:59Z</time>
      </trkpt>
      <trkpt lat="45.32278" lon="5.41856">
        <ele>493.289978</ele>
        <time>2012-08-11T17:12:05Z</time>
      </trkpt>
      <trkpt lat="45.32262" lon="5.41914">
        <ele>495.179993</ele>
        <time>2012-08-11T17:12:11Z</time>
      </trkpt>
      <trkpt lat="45.32253" lon="5.41977">
        <ele>497.329987</ele>
        <time>2012-08-11T17:12:17Z</time>
      </trkpt>
      <trkpt lat="45.3224" lon="5.42029">
        <ele>500.98999</ele>
        <time>2012-08-11T17:12:23Z</time>
      </trkpt>
      <trkpt lat="45.32212" lon="5.42043">
        <ele>501.799988</ele>
        <time>2012-08-11T17:12:35Z</time>
      </trkpt>
      <trkpt lat="45.32193" lon="5.42033">
        <ele>505.25</ele>
        <time>2012-08-11T17:12:47Z</time>
      </trkpt>
      <trkpt lat="45.32237" lon="5.4205">
        <ele>502.879974</ele>
        <time>2012-08-11T17:12:59Z</time>
      </trkpt>
      <trkpt lat="45.32279" lon="5.42073">
        <ele>501.509979</ele>
        <time>2012-08-11T17:13:05Z</time>
      </trkpt>
      <trkpt lat="45.32309" lon="5.42138">
        <ele>498.269989</ele>
        <time>2012-08-11T17:13:11Z</time>
      </trkpt>
      <trkpt lat="45.32341" lon="5.42197">
        <ele>492.179993</ele>
        <time>2012-08-11T17:13:17Z</time>
      </trkpt>
      <trkpt lat="45.32387" lon="5.42257">
        <ele>479.440002</ele>
        <time>2012-08-11T17:13:23Z</time>
      </trkpt>
      <trkpt lat="45.32428" lon="5.42323">
        <ele>469.059998</ele>
        <time>2012-08-11T17:13:29Z</time>
      </trkpt>
      <trkpt lat="45.32471" lon="5.42391">
        <ele>459.380005</ele>
        <time>2012-08-11T17:13:35Z</time>
      </trkpt>
      <trkpt lat="45.3252" lon="5.42453">
        <ele>455.769989</ele>
        <time>2012-08-11T17:13:41Z</time>
      </trkpt>
      <trkpt lat="45.32573" lon="5.42491">
        <ele>450.839996</ele>
        <time>2012-08-11T17:13:47Z</time>
      </trkpt>
      <trkpt lat="45.32623" lon="5.42553">
        <ele>446.940002</ele>
        <time>2012-08-11T17:13:53Z</time>
      </trkpt>
      <trkpt lat="45.32685" lon="5.42557">
        <ele>442.97998</ele>
        <time>2012-08-11T17:13:59Z</time>
      </trkpt>
      <trkpt lat="45.32741" lon="5.42583">
        <ele>440.309998</ele>
        <time>2012-08-11T17:14:05Z</time>
      </trkpt>
      <trkpt lat="45.32795" lon="5.42596">
        <ele>434.25</ele>
        <time>2012-08-11T17:14:11Z</time>
      </trkpt>
      <trkpt lat="45.32835" lon="5.42651">
        <ele>429.399994</ele>
        <time>2012-08-11T17:14:17Z</time>
      </trkpt>
      <trkpt lat="45.32875" lon="5.42689">
        <ele>439.769989</ele>
        <time>2012-08-11T17:14:23Z</time>
      </trkpt>
      <trkpt lat="45.32912" lon="5.42703">
        <ele>442.109985</ele>
        <time>2012-08-11T17:14:29Z</time>
      </trkpt>
      <trkpt lat="45.32975" lon="5.42698">
        <ele>446.389984</ele>
        <time>2012-08-11T17:14:41Z</time>
      </trkpt>
      <trkpt lat="45.33036" lon="5.42682">
        <ele>447.619995</ele>
        <time>2012-08-11T17:14:53Z</time>
      </trkpt>
      <trkpt lat="45.33089" lon="5.42675">
        <ele>443.199982</ele>
        <time>2012-08-11T17:15:05Z</time>
      </trkpt>
      <trkpt lat="45.33083" lon="5.42675">
        <ele>441.889984</ele>
        <time>2012-08-11T17:15:17Z</time>
      </trkpt>
      <trkpt lat="45.33083" lon="5.42675">
        <ele>441.889984</ele>
        <time>2012-08-11T17:15:29Z</time>
      </trkpt>
      <trkpt lat="45.33097" lon="5.42675">
        <ele>444.970001</ele>
        <time>2012-08-11T17:15:41Z</time>
      </trkpt>
      <trkpt lat="45.33138" lon="5.42684">
        <ele>454.339996</ele>
        <time>2012-08-11T17:15:53Z</time>
      </trkpt>
      <trkpt lat="45.33175" lon="5.42711">
        <ele>453.029999</ele>
        <time>2012-08-11T17:16:05Z</time>
      </trkpt>
      <trkpt lat="45.33196" lon="5.4277">
        <ele>451.220001</ele>
        <time>2012-08-11T17:16:17Z</time>
      </trkpt>
      <trkpt lat="45.33211" lon="5.42835">
        <ele>448.889984</ele>
        <time>2012-08-11T17:16:29Z</time>
      </trkpt>
      <trkpt lat="45.33172" lon="5.42887">
        <ele>444.25</ele>
        <time>2012-08-11T17:16:41Z</time>
      </trkpt>
      <trkpt lat="45.33128" lon="5.42933">
        <ele>440.599976</ele>
        <time>2012-08-11T17:16:53Z</time>
      </trkpt>
      <trkpt lat="45.33093" lon="5.42983">
        <ele>442.589996</ele>
        <time>2012-08-11T17:17:05Z</time>
      </trkpt>
      <trkpt lat="45.33059" lon="5.43031">
        <ele>451.009979</ele>
        <time>2012-08-11T17:17:17Z</time>
      </trkpt>
      <trkpt lat="45.33048" lon="5.43047">
        <ele>455.679993</ele>
        <time>2012-08-11T17:17:29Z</time>
      </trkpt>
      <trkpt lat="45.33048" lon="5.43047">
        <ele>455.679993</ele>
        <time>2012-08-11T17:17:41Z</time>
      </trkpt>
      <trkpt lat="45.33048" lon="5.43047">
        <ele>455.679993</ele>
        <time>2012-08-11T17:17:53Z</time>
      </trkpt>
      <trkpt lat="45.33048" lon="5.43047">
        <ele>455.679993</ele>
        <time>2012-08-11T17:18:05Z</time>
      </trkpt>
      <trkpt lat="45.33048" lon="5.43047">
        <ele>455.679993</ele>
        <time>2012-08-11T17:18:17Z</time>
      </trkpt>
      <trkpt lat="45.33038" lon="5.43069">
        <ele>463.329987</ele>
        <time>2012-08-11T17:18:29Z</time>
      </trkpt>
      <trkpt lat="45.33012" lon="5.43104">
        <ele>459.23999</ele>
        <time>2012-08-11T17:18:41Z</time>
      </trkpt>
      <trkpt lat="45.32981" lon="5.43154">
        <ele>460.059998</ele>
        <time>2012-08-11T17:18:53Z</time>
      </trkpt>
      <trkpt lat="45.32946" lon="5.43207">
        <ele>464.970001</ele>
        <time>2012-08-11T17:19:05Z</time>
      </trkpt>
      <trkpt lat="45.32914" lon="5.4326">
        <ele>464.449982</ele>
        <time>2012-08-11T17:19:17Z</time>
      </trkpt>
      <trkpt lat="45.32882" lon="5.43312">
        <ele>465.75</ele>
        <time>2012-08-11T17:19:29Z</time>
      </trkpt>
      <trkpt lat="45.32864" lon="5.43379">
        <ele>464.149994</ele>
        <time>2012-08-11T17:19:41Z</time>
      </trkpt>
      <trkpt lat="45.32834" lon="5.4344">
        <ele>463.339996</ele>
        <time>2012-08-11T17:19:53Z</time>
      </trkpt>
      <trkpt lat="45.32802" lon="5.43493">
        <ele>464.209991</ele>
        <time>2012-08-11T17:20:05Z</time>
      </trkpt>
      <trkpt lat="45.32772" lon="5.43546">
        <ele>463.559998</ele>
        <time>2012-08-11T17:20:17Z</time>
      </trkpt>
      <trkpt lat="45.3274" lon="5.43601">
        <ele>467</ele>
        <time>2012-08-11T17:20:29Z</time>
      </trkpt>
      <trkpt lat="45.32713" lon="5.43657">
        <ele>469.169983</ele>
        <time>2012-08-11T17:20:41Z</time>
      </trkpt>
      <trkpt lat="45.32683" lon="5.43716">
        <ele>471.410004</ele>
        <time>2012-08-11T17:20:53Z</time>
      </trkpt>
      <trkpt lat="45.32652" lon="5.43773">
        <ele>472.629974</ele>
        <time>2012-08-11T17:21:05Z</time>
      </trkpt>
      <trkpt lat="45.32624" lon="5.43832">
        <ele>472.72998</ele>
        <time>2012-08-11T17:21:17Z</time>
      </trkpt>
      <trkpt lat="45.32592" lon="5.4389">
        <ele>475.97998</ele>
        <time>2012-08-11T17:21:29Z</time>
      </trkpt>
      <trkpt lat="45.32563" lon="5.43949">
        <ele>476.279999</ele>
        <time>2012-08-11T17:21:41Z</time>
      </trkpt>
      <trkpt lat="45.32532" lon="5.44007">
        <ele>477.119995</ele>
        <time>2012-08-11T17:21:53Z</time>
      </trkpt>
      <trkpt lat="45.32498" lon="5.44059">
        <ele>482.679993</ele>
        <time>2012-08-11T17:22:05Z</time>
      </trkpt>
      <trkpt lat="45.32463" lon="5.44109">
        <ele>484.329987</ele>
        <time>2012-08-11T17:22:17Z</time>
      </trkpt>
      <trkpt lat="45.32435" lon="5.44163">
        <ele>485.259979</ele>
        <time>2012-08-11T17:22:29Z</time>
      </trkpt>
      <trkpt lat="45.32415" lon="5.44223">
        <ele>483.779999</ele>
        <time>2012-08-11T17:22:41Z</time>
      </trkpt>
      <trkpt lat="45.32394" lon="5.44284">
        <ele>486.179993</ele>
        <time>2012-08-11T17:22:53Z</time>
      </trkpt>
      <trkpt lat="45.32374" lon="5.44344">
        <ele>488.089996</ele>
        <time>2012-08-11T17:23:05Z</time>
      </trkpt>
      <trkpt lat="45.32353" lon="5.44404">
        <ele>489.160004</ele>
        <time>2012-08-11T17:23:17Z</time>
      </trkpt>
      <trkpt lat="45.32336" lon="5.44466">
        <ele>492.839996</ele>
        <time>2012-08-11T17:23:29Z</time>
      </trkpt>
      <trkpt lat="45.32322" lon="5.44531">
        <ele>497.089996</ele>
        <time>2012-08-11T17:23:41Z</time>
      </trkpt>
      <trkpt lat="45.32321" lon="5.44599">
        <ele>501.529999</ele>
        <time>2012-08-11T17:23:53Z</time>
      </trkpt>
      <trkpt lat="45.32321" lon="5.44666">
        <ele>503.329987</ele>
        <time>2012-08-11T17:24:05Z</time>
      </trkpt>
      <trkpt lat="45.3232" lon="5.44731">
        <ele>506.589996</ele>
        <time>2012-08-11T17:24:17Z</time>
      </trkpt>
      <trkpt lat="45.32319" lon="5.44797">
        <ele>509.179993</ele>
        <time>2012-08-11T17:24:29Z</time>
      </trkpt>
      <trkpt lat="45.32319" lon="5.44861">
        <ele>512.859985</ele>
        <time>2012-08-11T17:24:41Z</time>
      </trkpt>
      <trkpt lat="45.3231" lon="5.44923">
        <ele>515</ele>
        <time>2012-08-11T17:24:53Z</time>
      </trkpt>
      <trkpt lat="45.32304" lon="5.44986">
        <ele>513.51001</ele>
        <time>2012-08-11T17:25:05Z</time>
      </trkpt>
      <trkpt lat="45.3231" lon="5.45056">
        <ele>515.919983</ele>
        <time>2012-08-11T17:25:17Z</time>
      </trkpt>
      <trkpt lat="45.32311" lon="5.45128">
        <ele>517.399963</ele>
        <time>2012-08-11T17:25:29Z</time>
      </trkpt>
      <trkpt lat="45.32302" lon="5.45188">
        <ele>519.309998</ele>
        <time>2012-08-11T17:25:41Z</time>
      </trkpt>
      <trkpt lat="45.32291" lon="5.45248">
        <ele>518.789978</ele>
        <time>2012-08-11T17:25:53Z</time>
      </trkpt>
      <trkpt lat="45.32284" lon="5.45307">
        <ele>517.339966</ele>
        <time>2012-08-11T17:26:05Z</time>
      </trkpt>
      <trkpt lat="45.32275" lon="5.45365">
        <ele>519.459961</ele>
        <time>2012-08-11T17:26:17Z</time>
      </trkpt>
      <trkpt lat="45.32268" lon="5.45427">
        <ele>517.559998</ele>
        <time>2012-08-11T17:26:29Z</time>
      </trkpt>
      <trkpt lat="45.32261" lon="5.45487">
        <ele>521.039978</ele>
        <time>2012-08-11T17:26:41Z</time>
      </trkpt>
      <trkpt lat="45.32253" lon="5.45544">
        <ele>528.299988</ele>
        <time>2012-08-11T17:26:53Z</time>
      </trkpt>
      <trkpt lat="45.3225" lon="5.45606">
        <ele>533.899963</ele>
        <time>2012-08-11T17:27:05Z</time>
      </trkpt>
      <trkpt lat="45.32243" lon="5.45665">
        <ele>540.630005</ele>
        <time>2012-08-11T17:27:17Z</time>
      </trkpt>
      <trkpt lat="45.32241" lon="5.45728">
        <ele>539.359985</ele>
        <time>2012-08-11T17:27:29Z</time>
      </trkpt>
      <trkpt lat="45.32233" lon="5.45789">
        <ele>537.789978</ele>
        <time>2012-08-11T17:27:41Z</time>
      </trkpt>
      <trkpt lat="45.32219" lon="5.45847">
        <ele>543.23999</ele>
        <time>2012-08-11T17:27:53Z</time>
      </trkpt>
      <trkpt lat="45.32199" lon="5.45899">
        <ele>545.070007</ele>
        <time>2012-08-11T17:28:05Z</time>
      </trkpt>
      <trkpt lat="45.32185" lon="5.45954">
        <ele>550.059998</ele>
        <time>2012-08-11T17:28:17Z</time>
      </trkpt>
      <trkpt lat="45.32174" lon="5.46017">
        <ele>548.619995</ele>
        <time>2012-08-11T17:28:29Z</time>
      </trkpt>
      <trkpt lat="45.32168" lon="5.46076">
        <ele>551.909973</ele>
        <time>2012-08-11T17:28:41Z</time>
      </trkpt>
      <trkpt lat="45.32158" lon="5.46138">
        <ele>554.309998</ele>
        <time>2012-08-11T17:28:53Z</time>
      </trkpt>
      <trkpt lat="45.32145" lon="5.46196">
        <ele>559.75</ele>
        <time>2012-08-11T17:29:05Z</time>
      </trkpt>
      <trkpt lat="45.32118" lon="5.46247">
        <ele>556.619995</ele>
        <time>2012-08-11T17:29:17Z</time>
      </trkpt>
      <trkpt lat="45.3209" lon="5.463">
        <ele>556.640015</ele>
        <time>2012-08-11T17:29:29Z</time>
      </trkpt>
      <trkpt lat="45.32066" lon="5.46368">
        <ele>555.98999</ele>
        <time>2012-08-11T17:29:41Z</time>
      </trkpt>
      <trkpt lat="45.32039" lon="5.46427">
        <ele>562.679993</ele>
        <time>2012-08-11T17:29:53Z</time>
      </trkpt>
      <trkpt lat="45.32021" lon="5.46502">
        <ele>564.640015</ele>
        <time>2012-08-11T17:30:05Z</time>
      </trkpt>
      <trkpt lat="45.32021" lon="5.46588">
        <ele>568.219971</ele>
        <time>2012-08-11T17:30:17Z</time>
      </trkpt>
      <trkpt lat="45.32008" lon="5.46669">
        <ele>571.380005</ele>
        <time>2012-08-11T17:30:29Z</time>
      </trkpt>
      <trkpt lat="45.31967" lon="5.46733">
        <ele>567.659973</ele>
        <time>2012-08-11T17:30:41Z</time>
      </trkpt>
      <trkpt lat="45.31921" lon="5.46799">
        <ele>569.690002</ele>
        <time>2012-08-11T17:30:53Z</time>
      </trkpt>
      <trkpt lat="45.31904" lon="5.46849">
        <ele>574.140015</ele>
        <time>2012-08-11T17:31:05Z</time>
      </trkpt>
      <trkpt lat="45.31931" lon="5.46833">
        <ele>577.320007</ele>
        <time>2012-08-11T17:31:17Z</time>
      </trkpt>
      <trkpt lat="45.31958" lon="5.46802">
        <ele>585.019958</ele>
        <time>2012-08-11T17:31:29Z</time>
      </trkpt>
      <trkpt lat="45.31979" lon="5.46779">
        <ele>595.01001</ele>
        <time>2012-08-11T17:31:41Z</time>
      </trkpt>
      <trkpt lat="45.32002" lon="5.46771">
        <ele>600.209961</ele>
        <time>2012-08-11T17:31:53Z</time>
      </trkpt>
      <trkpt lat="45.32023" lon="5.46751">
        <ele>606.01001</ele>
        <time>2012-08-11T17:32:05Z</time>
      </trkpt>
      <trkpt lat="45.32042" lon="5.46728">
        <ele>608.429993</ele>
        <time>2012-08-11T17:32:17Z</time>
      </trkpt>
      <trkpt lat="45.32059" lon="5.46705">
        <ele>610.22998</ele>
        <time>2012-08-11T17:32:29Z</time>
      </trkpt>
      <trkpt lat="45.32072" lon="5.46684">
        <ele>612.419983</ele>
        <time>2012-08-11T17:32:41Z</time>
      </trkpt>
      <trkpt lat="45.32088" lon="5.46666">
        <ele>611.769958</ele>
        <time>2012-08-11T17:32:53Z</time>
      </trkpt>
      <trkpt lat="45.32105" lon="5.46647">
        <ele>602.299988</ele>
        <time>2012-08-11T17:33:05Z</time>
      </trkpt>
      <trkpt lat="45.32111" lon="5.4662">
        <ele>621.149963</ele>
        <time>2012-08-11T17:33:17Z</time>
      </trkpt>
      <trkpt lat="45.3212" lon="5.46598">
        <ele>633.409973</ele>
        <time>2012-08-11T17:33:29Z</time>
      </trkpt>
      <trkpt lat="45.32136" lon="5.46576">
        <ele>633.079956</ele>
        <time>2012-08-11T17:33:41Z</time>
      </trkpt>
      <trkpt lat="45.32153" lon="5.46548">
        <ele>636.839966</ele>
        <time>2012-08-11T17:33:53Z</time>
      </trkpt>
      <trkpt lat="45.32172" lon="5.46529">
        <ele>634.140015</ele>
        <time>2012-08-11T17:34:05Z</time>
      </trkpt>
      <trkpt lat="45.32188" lon="5.46509">
        <ele>628.76001</ele>
        <time>2012-08-11T17:34:17Z</time>
      </trkpt>
      <trkpt lat="45.322" lon="5.46487">
        <ele>632.47998</ele>
        <time>2012-08-11T17:34:29Z</time>
      </trkpt>
      <trkpt lat="45.32216" lon="5.46468">
        <ele>632.969971</ele>
        <time>2012-08-11T17:34:41Z</time>
      </trkpt>
      <trkpt lat="45.3223" lon="5.4645">
        <ele>635.019958</ele>
        <time>2012-08-11T17:34:53Z</time>
      </trkpt>
      <trkpt lat="45.32242" lon="5.46425">
        <ele>644.849976</ele>
        <time>2012-08-11T17:35:05Z</time>
      </trkpt>
      <trkpt lat="45.32254" lon="5.46401">
        <ele>649.940002</ele>
        <time>2012-08-11T17:35:17Z</time>
      </trkpt>
      <trkpt lat="45.32267" lon="5.46379">
        <ele>661.01001</ele>
        <time>2012-08-11T17:35:29Z</time>
      </trkpt>
      <trkpt lat="45.32282" lon="5.46357">
        <ele>660.5</ele>
        <time>2012-08-11T17:35:41Z</time>
      </trkpt>
      <trkpt lat="45.32293" lon="5.46338">
        <ele>668.599976</ele>
        <time>2012-08-11T17:35:53Z</time>
      </trkpt>
      <trkpt lat="45.32308" lon="5.46311">
        <ele>668.369995</ele>
        <time>2012-08-11T17:36:05Z</time>
      </trkpt>
      <trkpt lat="45.32323" lon="5.46285">
        <ele>670.769958</ele>
        <time>2012-08-11T17:36:17Z</time>
      </trkpt>
      <trkpt lat="45.3234" lon="5.46261">
        <ele>673.679993</ele>
        <time>2012-08-11T17:36:29Z</time>
      </trkpt>
      <trkpt lat="45.32353" lon="5.4623">
        <ele>678.619995</ele>
        <time>2012-08-11T17:36:41Z</time>
      </trkpt>
      <trkpt lat="45.3237" lon="5.46206">
        <ele>675.070007</ele>
        <time>2012-08-11T17:36:53Z</time>
      </trkpt>
      <trkpt lat="45.32383" lon="5.46179">
        <ele>675.299988</ele>
        <time>2012-08-11T17:37:05Z</time>
      </trkpt>
      <trkpt lat="45.32402" lon="5.46163">
        <ele>680.359985</ele>
        <time>2012-08-11T17:37:17Z</time>
      </trkpt>
      <trkpt lat="45.32419" lon="5.46142">
        <ele>693.5</ele>
        <time>2012-08-11T17:37:29Z</time>
      </trkpt>
      <trkpt lat="45.32436" lon="5.46123">
        <ele>689.429993</ele>
        <time>2012-08-11T17:37:41Z</time>
      </trkpt>
      <trkpt lat="45.32448" lon="5.46101">
        <ele>688.200012</ele>
        <time>2012-08-11T17:37:53Z</time>
      </trkpt>
      <trkpt lat="45.32464" lon="5.46124">
        <ele>685.019958</ele>
        <time>2012-08-11T17:38:05Z</time>
      </trkpt>
      <trkpt lat="45.32472" lon="5.4616">
        <ele>690.169983</ele>
        <time>2012-08-11T17:38:17Z</time>
      </trkpt>
      <trkpt lat="45.32464" lon="5.46182">
        <ele>701.579956</ele>
        <time>2012-08-11T17:38:29Z</time>
      </trkpt>
      <trkpt lat="45.32453" lon="5.46207">
        <ele>704.640015</ele>
        <time>2012-08-11T17:38:41Z</time>
      </trkpt>
      <trkpt lat="45.32443" lon="5.46233">
        <ele>708.059998</ele>
        <time>2012-08-11T17:38:53Z</time>
      </trkpt>
      <trkpt lat="45.32428" lon="5.46257">
        <ele>708.289978</ele>
        <time>2012-08-11T17:39:05Z</time>
      </trkpt>
      <trkpt lat="45.3242" lon="5.46282">
        <ele>707.709961</ele>
        <time>2012-08-11T17:39:17Z</time>
      </trkpt>
      <trkpt lat="45.32408" lon="5.46313">
        <ele>707.23999</ele>
        <time>2012-08-11T17:39:29Z</time>
      </trkpt>
      <trkpt lat="45.32399" lon="5.46346">
        <ele>710.359985</ele>
        <time>2012-08-11T17:39:41Z</time>
      </trkpt>
      <trkpt lat="45.3238" lon="5.46414">
        <ele>711.639954</ele>
        <time>2012-08-11T17:39:53Z</time>
      </trkpt>
      <trkpt lat="45.32364" lon="5.46469">
        <ele>714.700012</ele>
        <time>2012-08-11T17:40:05Z</time>
      </trkpt>
      <trkpt lat="45.32353" lon="5.4651">
        <ele>711.669983</ele>
        <time>2012-08-11T17:40:17Z</time>
      </trkpt>
      <trkpt lat="45.32346" lon="5.46534">
        <ele>715.849976</ele>
        <time>2012-08-11T17:40:29Z</time>
      </trkpt>
      <trkpt lat="45.32346" lon="5.46534">
        <ele>715.849976</ele>
        <time>2012-08-11T17:40:41Z</time>
      </trkpt>
      <trkpt lat="45.32346" lon="5.46534">
        <ele>715.849976</ele>
        <time>2012-08-11T17:40:53Z</time>
      </trkpt>
      <trkpt lat="45.32346" lon="5.46534">
        <ele>715.849976</ele>
        <time>2012-08-11T17:41:05Z</time>
      </trkpt>
      <trkpt lat="45.32346" lon="5.46534">
        <ele>715.849976</ele>
        <time>2012-08-11T17:41:17Z</time>
      </trkpt>
      <trkpt lat="45.32346" lon="5.46534">
        <ele>715.849976</ele>
        <time>2012-08-11T17:41:29Z</time>
      </trkpt>
      <trkpt lat="45.32359" lon="5.46571">
        <ele>723.47998</ele>
        <time>2012-08-11T17:41:41Z</time>
      </trkpt>
      <trkpt lat="45.32357" lon="5.46597">
        <ele>722.899963</ele>
        <time>2012-08-11T17:41:53Z</time>
      </trkpt>
      <trkpt lat="45.32362" lon="5.46647">
        <ele>727.359985</ele>
        <time>2012-08-11T17:42:05Z</time>
      </trkpt>
      <trkpt lat="45.32365" lon="5.46691">
        <ele>730.75</ele>
        <time>2012-08-11T17:42:17Z</time>
      </trkpt>
      <trkpt lat="45.32376" lon="5.46733">
        <ele>727.329956</ele>
        <time>2012-08-11T17:42:29Z</time>
      </trkpt>
      <trkpt lat="45.32375" lon="5.46744">
        <ele>725.859985</ele>
        <time>2012-08-11T17:42:41Z</time>
      </trkpt>
      <trkpt lat="45.32365" lon="5.46667">
        <ele>730.559998</ele>
        <time>2012-08-11T17:42:53Z</time>
      </trkpt>
      <trkpt lat="45.32359" lon="5.46603">
        <ele>730.469971</ele>
        <time>2012-08-11T17:42:59Z</time>
      </trkpt>
      <trkpt lat="45.32362" lon="5.46524">
        <ele>727.789978</ele>
        <time>2012-08-11T17:43:05Z</time>
      </trkpt>
      <trkpt lat="45.32381" lon="5.4645">
        <ele>723.799988</ele>
        <time>2012-08-11T17:43:11Z</time>
      </trkpt>
      <trkpt lat="45.32398" lon="5.46377">
        <ele>720.459961</ele>
        <time>2012-08-11T17:43:17Z</time>
      </trkpt>
      <trkpt lat="45.32414" lon="5.46309">
        <ele>714.529968</ele>
        <time>2012-08-11T17:43:23Z</time>
      </trkpt>
      <trkpt lat="45.32445" lon="5.46238">
        <ele>707.619995</ele>
        <time>2012-08-11T17:43:29Z</time>
      </trkpt>
      <trkpt lat="45.32475" lon="5.46169">
        <ele>698.019958</ele>
        <time>2012-08-11T17:43:35Z</time>
      </trkpt>
      <trkpt lat="45.32461" lon="5.46106">
        <ele>690.599976</ele>
        <time>2012-08-11T17:43:41Z</time>
      </trkpt>
      <trkpt lat="45.3243" lon="5.46143">
        <ele>681.01001</ele>
        <time>2012-08-11T17:43:47Z</time>
      </trkpt>
      <trkpt lat="45.32374" lon="5.46194">
        <ele>671.97998</ele>
        <time>2012-08-11T17:43:53Z</time>
      </trkpt>
      <trkpt lat="45.32337" lon="5.46283">
        <ele>661.179993</ele>
        <time>2012-08-11T17:43:59Z</time>
      </trkpt>
      <trkpt lat="45.32284" lon="5.46377">
        <ele>661.579956</ele>
        <time>2012-08-11T17:44:05Z</time>
      </trkpt>
      <trkpt lat="45.32205" lon="5.46472">
        <ele>654.700012</ele>
        <time>2012-08-11T17:44:11Z</time>
      </trkpt>
      <trkpt lat="45.32124" lon="5.46571">
        <ele>650.959961</ele>
        <time>2012-08-11T17:44:17Z</time>
      </trkpt>
      <trkpt lat="45.32053" lon="5.46689">
        <ele>632.649963</ele>
        <time>2012-08-11T17:44:23Z</time>
      </trkpt>
      <trkpt lat="45.31991" lon="5.46781">
        <ele>601.279968</ele>
        <time>2012-08-11T17:44:29Z</time>
      </trkpt>
      <trkpt lat="45.31918" lon="5.46839">
        <ele>577.719971</ele>
        <time>2012-08-11T17:44:35Z</time>
      </trkpt>
      <trkpt lat="45.3188" lon="5.46857">
        <ele>562.75</ele>
        <time>2012-08-11T17:44:41Z</time>
      </trkpt>
      <trkpt lat="45.31831" lon="5.46931">
        <ele>557.109985</ele>
        <time>2012-08-11T17:44:53Z</time>
      </trkpt>
      <trkpt lat="45.31779" lon="5.46932">
        <ele>560.909973</ele>
        <time>2012-08-11T17:44:59Z</time>
      </trkpt>
      <trkpt lat="45.3172" lon="5.46915">
        <ele>562.130005</ele>
        <time>2012-08-11T17:45:05Z</time>
      </trkpt>
      <trkpt lat="45.3166" lon="5.46941">
        <ele>555.559998</ele>
        <time>2012-08-11T17:45:11Z</time>
      </trkpt>
      <trkpt lat="45.31614" lon="5.47007">
        <ele>551.179993</ele>
        <time>2012-08-11T17:45:17Z</time>
      </trkpt>
      <trkpt lat="45.31575" lon="5.47071">
        <ele>543.25</ele>
        <time>2012-08-11T17:45:23Z</time>
      </trkpt>
      <trkpt lat="45.31526" lon="5.47118">
        <ele>543.26001</ele>
        <time>2012-08-11T17:45:29Z</time>
      </trkpt>
      <trkpt lat="45.31473" lon="5.47183">
        <ele>544.97998</ele>
        <time>2012-08-11T17:45:35Z</time>
      </trkpt>
      <trkpt lat="45.3142" lon="5.47236">
        <ele>538.679993</ele>
        <time>2012-08-11T17:45:41Z</time>
      </trkpt>
      <trkpt lat="45.3135" lon="5.47209">
        <ele>540.580017</ele>
        <time>2012-08-11T17:45:47Z</time>
      </trkpt>
      <trkpt lat="45.31298" lon="5.47228">
        <ele>534.26001</ele>
        <time>2012-08-11T17:45:53Z</time>
      </trkpt>
      <trkpt lat="45.31269" lon="5.47312">
        <ele>526.219971</ele>
        <time>2012-08-11T17:45:59Z</time>
      </trkpt>
      <trkpt lat="45.31246" lon="5.47403">
        <ele>521.719971</ele>
        <time>2012-08-11T17:46:05Z</time>
      </trkpt>
      <trkpt lat="45.31233" lon="5.47499">
        <ele>523.140015</ele>
        <time>2012-08-11T17:46:11Z</time>
      </trkpt>
      <trkpt lat="45.312" lon="5.47589">
        <ele>522.809998</ele>
        <time>2012-08-11T17:46:17Z</time>
      </trkpt>
      <trkpt lat="45.31128" lon="5.47634">
        <ele>508.949982</ele>
        <time>2012-08-11T17:46:23Z</time>
      </trkpt>
      <trkpt lat="45.31056" lon="5.47639">
        <ele>509.190002</ele>
        <time>2012-08-11T17:46:29Z</time>
      </trkpt>
      <trkpt lat="45.30988" lon="5.47598">
        <ele>504.139984</ele>
        <time>2012-08-11T17:46:35Z</time>
      </trkpt>
      <trkpt lat="45.30943" lon="5.47521">
        <ele>499.259979</ele>
        <time>2012-08-11T17:46:41Z</time>
      </trkpt>
      <trkpt lat="45.30932" lon="5.47425">
        <ele>492.129974</ele>
        <time>2012-08-11T17:46:47Z</time>
      </trkpt>
      <trkpt lat="45.30934" lon="5.47319">
        <ele>482.849976</ele>
        <time>2012-08-11T17:46:53Z</time>
      </trkpt>
      <trkpt lat="45.30933" lon="5.47225">
        <ele>480.599976</ele>
        <time>2012-08-11T17:46:59Z</time>
      </trkpt>
      <trkpt lat="45.30875" lon="5.47194">
        <ele>472.609985</ele>
        <time>2012-08-11T17:47:05Z</time>
      </trkpt>
      <trkpt lat="45.30853" lon="5.47121">
        <ele>467.319977</ele>
        <time>2012-08-11T17:47:11Z</time>
      </trkpt>
      <trkpt lat="45.30809" lon="5.47133">
        <ele>468.309998</ele>
        <time>2012-08-11T17:47:17Z</time>
      </trkpt>
      <trkpt lat="45.30758" lon="5.472">
        <ele>465.259979</ele>
        <time>2012-08-11T17:47:23Z</time>
      </trkpt>
      <trkpt lat="45.30732" lon="5.47295">
        <ele>459.160004</ele>
        <time>2012-08-11T17:47:29Z</time>
      </trkpt>
      <trkpt lat="45.30707" lon="5.47383">
        <ele>467.48999</ele>
        <time>2012-08-11T17:47:35Z</time>
      </trkpt>
      <trkpt lat="45.30669" lon="5.47462">
        <ele>469.639984</ele>
        <time>2012-08-11T17:47:41Z</time>
      </trkpt>
      <trkpt lat="45.30615" lon="5.47531">
        <ele>463.669983</ele>
        <time>2012-08-11T17:47:47Z</time>
      </trkpt>
      <trkpt lat="45.30562" lon="5.47593">
        <ele>452.119995</ele>
        <time>2012-08-11T17:47:53Z</time>
      </trkpt>
      <trkpt lat="45.30496" lon="5.47637">
        <ele>439.849976</ele>
        <time>2012-08-11T17:47:59Z</time>
      </trkpt>
      <trkpt lat="45.30437" lon="5.47655">
        <ele>437.72998</ele>
        <time>2012-08-11T17:48:05Z</time>
      </trkpt>
      <trkpt lat="45.30413" lon="5.47687">
        <ele>434.059998</ele>
        <time>2012-08-11T17:48:11Z</time>
      </trkpt>
      <trkpt lat="45.30412" lon="5.47682">
        <ele>431.419983</ele>
        <time>2012-08-11T17:48:23Z</time>
      </trkpt>
      <trkpt lat="45.30396" lon="5.47677">
        <ele>429.190002</ele>
        <time>2012-08-11T17:48:35Z</time>
      </trkpt>
      <trkpt lat="45.3037" lon="5.47658">
        <ele>428.130005</ele>
        <time>2012-08-11T17:48:47Z</time>
      </trkpt>
      <trkpt lat="45.30334" lon="5.4764">
        <ele>432.449982</ele>
        <time>2012-08-11T17:48:59Z</time>
      </trkpt>
      <trkpt lat="45.30302" lon="5.47631">
        <ele>433.429993</ele>
        <time>2012-08-11T17:49:11Z</time>
      </trkpt>
      <trkpt lat="45.30272" lon="5.47608">
        <ele>435.609985</ele>
        <time>2012-08-11T17:49:23Z</time>
      </trkpt>
      <trkpt lat="45.3024" lon="5.47598">
        <ele>442.349976</ele>
        <time>2012-08-11T17:49:35Z</time>
      </trkpt>
      <trkpt lat="45.30222" lon="5.47571">
        <ele>445.410004</ele>
        <time>2012-08-11T17:49:47Z</time>
      </trkpt>
      <trkpt lat="45.30206" lon="5.47538">
        <ele>450.539978</ele>
        <time>2012-08-11T17:49:59Z</time>
      </trkpt>
      <trkpt lat="45.30188" lon="5.47506">
        <ele>456.169983</ele>
        <time>2012-08-11T17:50:11Z</time>
      </trkpt>
      <trkpt lat="45.3016" lon="5.47484">
        <ele>450.190002</ele>
        <time>2012-08-11T17:50:23Z</time>
      </trkpt>
      <trkpt lat="45.30129" lon="5.47481">
        <ele>462.429993</ele>
        <time>2012-08-11T17:50:35Z</time>
      </trkpt>
      <trkpt lat="45.30098" lon="5.47501">
        <ele>467.929993</ele>
        <time>2012-08-11T17:50:47Z</time>
      </trkpt>
      <trkpt lat="45.30062" lon="5.47503">
        <ele>471.539978</ele>
        <time>2012-08-11T17:50:59Z</time>
      </trkpt>
      <trkpt lat="45.30033" lon="5.47477">
        <ele>473.160004</ele>
        <time>2012-08-11T17:51:11Z</time>
      </trkpt>
      <trkpt lat="45.30014" lon="5.47441">
        <ele>473.919983</ele>
        <time>2012-08-11T17:51:23Z</time>
      </trkpt>
      <trkpt lat="45.30015" lon="5.47394">
        <ele>476.049988</ele>
        <time>2012-08-11T17:51:35Z</time>
      </trkpt>
      <trkpt lat="45.30022" lon="5.47347">
        <ele>478.759979</ele>
        <time>2012-08-11T17:51:47Z</time>
      </trkpt>
      <trkpt lat="45.30027" lon="5.473">
        <ele>478.389984</ele>
        <time>2012-08-11T17:51:59Z</time>
      </trkpt>
      <trkpt lat="45.30024" lon="5.47253">
        <ele>482.569977</ele>
        <time>2012-08-11T17:52:11Z</time>
      </trkpt>
      <trkpt lat="45.30022" lon="5.47204">
        <ele>485.629974</ele>
        <time>2012-08-11T17:52:23Z</time>
      </trkpt>
      <trkpt lat="45.30029" lon="5.4716">
        <ele>487.559998</ele>
        <time>2012-08-11T17:52:35Z</time>
      </trkpt>
      <trkpt lat="45.30038" lon="5.47119">
        <ele>486.879974</ele>
        <time>2012-08-11T17:52:47Z</time>
      </trkpt>
      <trkpt lat="45.30051" lon="5.47075">
        <ele>485.709991</ele>
        <time>2012-08-11T17:52:59Z</time>
      </trkpt>
      <trkpt lat="45.30061" lon="5.47033">
        <ele>486.099976</ele>
        <time>2012-08-11T17:53:11Z</time>
      </trkpt>
      <trkpt lat="45.3007" lon="5.46991">
        <ele>490.609985</ele>
        <time>2012-08-11T17:53:23Z</time>
      </trkpt>
      <trkpt lat="45.30083" lon="5.46951">
        <ele>491.5</ele>
        <time>2012-08-11T17:53:35Z</time>
      </trkpt>
      <trkpt lat="45.30095" lon="5.46903">
        <ele>494.319977</ele>
        <time>2012-08-11T17:53:47Z</time>
      </trkpt>
      <trkpt lat="45.3012" lon="5.46862">
        <ele>496.679993</ele>
        <time>2012-08-11T17:53:59Z</time>
      </trkpt>
      <trkpt lat="45.3013" lon="5.46817">
        <ele>504.470001</ele>
        <time>2012-08-11T17:54:11Z</time>
      </trkpt>
      <trkpt lat="45.30117" lon="5.46781">
        <ele>509.329987</ele>
        <time>2012-08-11T17:54:23Z</time>
      </trkpt>
      <trkpt lat="45.3011" lon="5.46735">
        <ele>509.609985</ele>
        <time>2012-08-11T17:54:35Z</time>
      </trkpt>
      <trkpt lat="45.30109" lon="5.46684">
        <ele>517.72998</ele>
        <time>2012-08-11T17:54:47Z</time>
      </trkpt>
      <trkpt lat="45.30117" lon="5.46639">
        <ele>517.51001</ele>
        <time>2012-08-11T17:54:59Z</time>
      </trkpt>
      <trkpt lat="45.30134" lon="5.46603">
        <ele>519.97998</ele>
        <time>2012-08-11T17:55:11Z</time>
      </trkpt>
      <trkpt lat="45.30158" lon="5.46572">
        <ele>519.619995</ele>
        <time>2012-08-11T17:55:23Z</time>
      </trkpt>
      <trkpt lat="45.30182" lon="5.46545">
        <ele>514.73999</ele>
        <time>2012-08-11T17:55:35Z</time>
      </trkpt>
      <trkpt lat="45.30184" lon="5.46495">
        <ele>524.73999</ele>
        <time>2012-08-11T17:55:47Z</time>
      </trkpt>
      <trkpt lat="45.30176" lon="5.46448">
        <ele>525.269958</ele>
        <time>2012-08-11T17:55:59Z</time>
      </trkpt>
      <trkpt lat="45.30168" lon="5.464">
        <ele>530.109985</ele>
        <time>2012-08-11T17:56:11Z</time>
      </trkpt>
      <trkpt lat="45.30166" lon="5.46348">
        <ele>536.529968</ele>
        <time>2012-08-11T17:56:23Z</time>
      </trkpt>
      <trkpt lat="45.30176" lon="5.46308">
        <ele>536.320007</ele>
        <time>2012-08-11T17:56:35Z</time>
      </trkpt>
      <trkpt lat="45.30195" lon="5.46271">
        <ele>536.130005</ele>
        <time>2012-08-11T17:56:47Z</time>
      </trkpt>
      <trkpt lat="45.30198" lon="5.46229">
        <ele>543.820007</ele>
        <time>2012-08-11T17:56:59Z</time>
      </trkpt>
      <trkpt lat="45.30183" lon="5.462">
        <ele>542.47998</ele>
        <time>2012-08-11T17:57:11Z</time>
      </trkpt>
      <trkpt lat="45.30182" lon="5.46144">
        <ele>535.709961</ele>
        <time>2012-08-11T17:57:23Z</time>
      </trkpt>
      <trkpt lat="45.30189" lon="5.46097">
        <ele>535.589966</ele>
        <time>2012-08-11T17:57:35Z</time>
      </trkpt>
      <trkpt lat="45.30188" lon="5.46042">
        <ele>545.25</ele>
        <time>2012-08-11T17:57:47Z</time>
      </trkpt>
      <trkpt lat="45.30188" lon="5.45992">
        <ele>548.200012</ele>
        <time>2012-08-11T17:57:59Z</time>
      </trkpt>
      <trkpt lat="45.30191" lon="5.45948">
        <ele>550.859985</ele>
        <time>2012-08-11T17:58:11Z</time>
      </trkpt>
      <trkpt lat="45.30179" lon="5.45906">
        <ele>553.209961</ele>
        <time>2012-08-11T17:58:23Z</time>
      </trkpt>
      <trkpt lat="45.30174" lon="5.45858">
        <ele>554.72998</ele>
        <time>2012-08-11T17:58:35Z</time>
      </trkpt>
      <trkpt lat="45.30157" lon="5.45812">
        <ele>553.659973</ele>
        <time>2012-08-11T17:58:47Z</time>
      </trkpt>
      <trkpt lat="45.30128" lon="5.45765">
        <ele>555.709961</ele>
        <time>2012-08-11T17:58:59Z</time>
      </trkpt>
      <trkpt lat="45.3008" lon="5.45732">
        <ele>550.25</ele>
        <time>2012-08-11T17:59:11Z</time>
      </trkpt>
      <trkpt lat="45.3001" lon="5.45675">
        <ele>547.459961</ele>
        <time>2012-08-11T17:59:23Z</time>
      </trkpt>
      <trkpt lat="45.29993" lon="5.4563">
        <ele>543.599976</ele>
        <time>2012-08-11T17:59:29Z</time>
      </trkpt>
      <trkpt lat="45.29989" lon="5.4562">
        <ele>544.98999</ele>
        <time>2012-08-11T17:59:41Z</time>
      </trkpt>
      <trkpt lat="45.29989" lon="5.4562">
        <ele>544.98999</ele>
        <time>2012-08-11T17:59:53Z</time>
      </trkpt>
      <trkpt lat="45.29989" lon="5.4562">
        <ele>544.98999</ele>
        <time>2012-08-11T18:00:05Z</time>
      </trkpt>
      <trkpt lat="45.29988" lon="5.45625">
        <ele>549.390015</ele>
        <time>2012-08-11T18:00:17Z</time>
      </trkpt>
      <trkpt lat="45.29985" lon="5.45638">
        <ele>549.269958</ele>
        <time>2012-08-11T18:00:29Z</time>
      </trkpt>
      <trkpt lat="45.29985" lon="5.45638">
        <ele>549.269958</ele>
        <time>2012-08-11T18:00:41Z</time>
      </trkpt>
      <trkpt lat="45.29985" lon="5.45638">
        <ele>549.269958</ele>
        <time>2012-08-11T18:00:53Z</time>
      </trkpt>
      <trkpt lat="45.2999" lon="5.45625">
        <ele>545.089966</ele>
        <time>2012-08-11T18:01:05Z</time>
      </trkpt>
      <trkpt lat="45.3" lon="5.45582">
        <ele>540.5</ele>
        <time>2012-08-11T18:01:17Z</time>
      </trkpt>
      <trkpt lat="45.30041" lon="5.4551">
        <ele>535.909973</ele>
        <time>2012-08-11T18:01:29Z</time>
      </trkpt>
      <trkpt lat="45.30052" lon="5.45456">
        <ele>532.820007</ele>
        <time>2012-08-11T18:01:35Z</time>
      </trkpt>
      <trkpt lat="45.30017" lon="5.45372">
        <ele>529.399963</ele>
        <time>2012-08-11T18:01:47Z</time>
      </trkpt>
      <trkpt lat="45.29982" lon="5.45364">
        <ele>530.529968</ele>
        <time>2012-08-11T18:01:53Z</time>
      </trkpt>
      <trkpt lat="45.29982" lon="5.45451">
        <ele>525.909973</ele>
        <time>2012-08-11T18:02:05Z</time>
      </trkpt>
      <trkpt lat="45.29946" lon="5.45494">
        <ele>527.700012</ele>
        <time>2012-08-11T18:02:17Z</time>
      </trkpt>
      <trkpt lat="45.29893" lon="5.45545">
        <ele>521.799988</ele>
        <time>2012-08-11T18:02:29Z</time>
      </trkpt>
      <trkpt lat="45.29873" lon="5.45598">
        <ele>515.359985</ele>
        <time>2012-08-11T18:02:41Z</time>
      </trkpt>
      <trkpt lat="45.29899" lon="5.45745">
        <ele>499.859985</ele>
        <time>2012-08-11T18:02:53Z</time>
      </trkpt>
      <trkpt lat="45.29868" lon="5.45791">
        <ele>491.569977</ele>
        <time>2012-08-11T18:02:59Z</time>
      </trkpt>
      <trkpt lat="45.29837" lon="5.45905">
        <ele>488.279999</ele>
        <time>2012-08-11T18:03:05Z</time>
      </trkpt>
      <trkpt lat="45.29826" lon="5.46002">
        <ele>484.009979</ele>
        <time>2012-08-11T18:03:11Z</time>
      </trkpt>
      <trkpt lat="45.29785" lon="5.46065">
        <ele>473.410004</ele>
        <time>2012-08-11T18:03:17Z</time>
      </trkpt>
      <trkpt lat="45.29757" lon="5.46127">
        <ele>465.669983</ele>
        <time>2012-08-11T18:03:23Z</time>
      </trkpt>
      <trkpt lat="45.2975" lon="5.46197">
        <ele>459.179993</ele>
        <time>2012-08-11T18:03:29Z</time>
      </trkpt>
      <trkpt lat="45.2975" lon="5.46267">
        <ele>444.829987</ele>
        <time>2012-08-11T18:03:35Z</time>
      </trkpt>
      <trkpt lat="45.29744" lon="5.46352">
        <ele>427.190002</ele>
        <time>2012-08-11T18:03:41Z</time>
      </trkpt>
      <trkpt lat="45.29736" lon="5.46413">
        <ele>414.660004</ele>
        <time>2012-08-11T18:03:47Z</time>
      </trkpt>
      <trkpt lat="45.29742" lon="5.46426">
        <ele>407.009979</ele>
        <time>2012-08-11T18:03:59Z</time>
      </trkpt>
      <trkpt lat="45.29742" lon="5.46426">
        <ele>407.009979</ele>
        <time>2012-08-11T18:04:11Z</time>
      </trkpt>
      <trkpt lat="45.29742" lon="5.46426">
        <ele>407.009979</ele>
        <time>2012-08-11T18:04:23Z</time>
      </trkpt>
      <trkpt lat="45.29742" lon="5.46426">
        <ele>407.009979</ele>
        <time>2012-08-11T18:04:35Z</time>
      </trkpt>
      <trkpt lat="45.29742" lon="5.46426">
        <ele>407.009979</ele>
        <time>2012-08-11T18:04:47Z</time>
      </trkpt>
      <trkpt lat="45.29742" lon="5.46426">
        <ele>407.009979</ele>
        <time>2012-08-11T18:04:59Z</time>
      </trkpt>
      <trkpt lat="45.29742" lon="5.46426">
        <ele>407.009979</ele>
        <time>2012-08-11T18:05:11Z</time>
      </trkpt>
      <trkpt lat="45.29742" lon="5.46426">
        <ele>407.009979</ele>
        <time>2012-08-11T18:05:23Z</time>
      </trkpt>
      <trkpt lat="45.29742" lon="5.46426">
        <ele>407.009979</ele>
        <time>2012-08-11T18:05:35Z</time>
      </trkpt>
      <trkpt lat="45.29742" lon="5.46426">
        <ele>407.009979</ele>
        <time>2012-08-11T18:05:47Z</time>
      </trkpt>
      <trkpt lat="45.29742" lon="5.46426">
        <ele>407.009979</ele>
        <time>2012-08-11T18:05:59Z</time>
      </trkpt>
      <trkpt lat="45.29742" lon="5.46426">
        <ele>407.009979</ele>
        <time>2012-08-11T18:06:11Z</time>
      </trkpt>
      <trkpt lat="45.29756" lon="5.46481">
        <ele>425.339996</ele>
        <time>2012-08-11T18:06:23Z</time>
      </trkpt>
      <trkpt lat="45.29737" lon="5.46536">
        <ele>417.609985</ele>
        <time>2012-08-11T18:06:35Z</time>
      </trkpt>
      <trkpt lat="45.29733" lon="5.46616">
        <ele>402.049988</ele>
        <time>2012-08-11T18:06:41Z</time>
      </trkpt>
      <trkpt lat="45.29718" lon="5.46694">
        <ele>385.579987</ele>
        <time>2012-08-11T18:06:47Z</time>
      </trkpt>
      <trkpt lat="45.29712" lon="5.46764">
        <ele>368.049988</ele>
        <time>2012-08-11T18:06:53Z</time>
      </trkpt>
      <trkpt lat="45.29723" lon="5.46833">
        <ele>355.220001</ele>
        <time>2012-08-11T18:06:59Z</time>
      </trkpt>
      <trkpt lat="45.29724" lon="5.46908">
        <ele>336.5</ele>
        <time>2012-08-11T18:07:05Z</time>
      </trkpt>
      <trkpt lat="45.29729" lon="5.46981">
        <ele>326.829987</ele>
        <time>2012-08-11T18:07:11Z</time>
      </trkpt>
      <trkpt lat="45.29737" lon="5.47049">
        <ele>317.079987</ele>
        <time>2012-08-11T18:07:17Z</time>
      </trkpt>
      <trkpt lat="45.29726" lon="5.47126">
        <ele>315.350006</ele>
        <time>2012-08-11T18:07:23Z</time>
      </trkpt>
      <trkpt lat="45.29705" lon="5.47211">
        <ele>311.940002</ele>
        <time>2012-08-11T18:07:29Z</time>
      </trkpt>
      <trkpt lat="45.29694" lon="5.47312">
        <ele>308.880005</ele>
        <time>2012-08-11T18:07:35Z</time>
      </trkpt>
      <trkpt lat="45.29697" lon="5.4742">
        <ele>301.48999</ele>
        <time>2012-08-11T18:07:41Z</time>
      </trkpt>
      <trkpt lat="45.29709" lon="5.47535">
        <ele>297.339996</ele>
        <time>2012-08-11T18:07:47Z</time>
      </trkpt>
      <trkpt lat="45.29699" lon="5.47653">
        <ele>291.130005</ele>
        <time>2012-08-11T18:07:53Z</time>
      </trkpt>
      <trkpt lat="45.29687" lon="5.47735">
        <ele>287.410004</ele>
        <time>2012-08-11T18:07:59Z</time>
      </trkpt>
      <trkpt lat="45.29661" lon="5.47754">
        <ele>286.630005</ele>
        <time>2012-08-11T18:08:05Z</time>
      </trkpt>
      <trkpt lat="45.29606" lon="5.47733">
        <ele>290.98999</ele>
        <time>2012-08-11T18:08:17Z</time>
      </trkpt>
      <trkpt lat="45.29549" lon="5.47704">
        <ele>288.899994</ele>
        <time>2012-08-11T18:08:29Z</time>
      </trkpt>
      <trkpt lat="45.29524" lon="5.47621">
        <ele>295.709991</ele>
        <time>2012-08-11T18:08:41Z</time>
      </trkpt>
      <trkpt lat="45.29496" lon="5.47544">
        <ele>298.669983</ele>
        <time>2012-08-11T18:08:53Z</time>
      </trkpt>
      <trkpt lat="45.29451" lon="5.4748">
        <ele>297.369995</ele>
        <time>2012-08-11T18:09:05Z</time>
      </trkpt>
      <trkpt lat="45.29418" lon="5.47399">
        <ele>296.410004</ele>
        <time>2012-08-11T18:09:17Z</time>
      </trkpt>
      <trkpt lat="45.29397" lon="5.47338">
        <ele>297.72998</ele>
        <time>2012-08-11T18:09:29Z</time>
      </trkpt>
      <trkpt lat="45.29374" lon="5.47266">
        <ele>297.279999</ele>
        <time>2012-08-11T18:09:41Z</time>
      </trkpt>
      <trkpt lat="45.29352" lon="5.47205">
        <ele>298.100006</ele>
        <time>2012-08-11T18:09:53Z</time>
      </trkpt>
      <trkpt lat="45.29301" lon="5.47159">
        <ele>294.829987</ele>
        <time>2012-08-11T18:10:05Z</time>
      </trkpt>
      <trkpt lat="45.29253" lon="5.4711">
        <ele>296.179993</ele>
        <time>2012-08-11T18:10:17Z</time>
      </trkpt>
      <trkpt lat="45.29221" lon="5.4705">
        <ele>299.190002</ele>
        <time>2012-08-11T18:10:29Z</time>
      </trkpt>
      <trkpt lat="45.29192" lon="5.46998">
        <ele>305.940002</ele>
        <time>2012-08-11T18:10:41Z</time>
      </trkpt>
      <trkpt lat="45.29165" lon="5.46945">
        <ele>308.130005</ele>
        <time>2012-08-11T18:10:53Z</time>
      </trkpt>
      <trkpt lat="45.2914" lon="5.46898">
        <ele>308.399994</ele>
        <time>2012-08-11T18:11:05Z</time>
      </trkpt>
      <trkpt lat="45.29116" lon="5.46845">
        <ele>310.380005</ele>
        <time>2012-08-11T18:11:17Z</time>
      </trkpt>
      <trkpt lat="45.29098" lon="5.46793">
        <ele>321.419983</ele>
        <time>2012-08-11T18:11:29Z</time>
      </trkpt>
      <trkpt lat="45.29085" lon="5.46747">
        <ele>329.959991</ele>
        <time>2012-08-11T18:11:41Z</time>
      </trkpt>
      <trkpt lat="45.2907" lon="5.46693">
        <ele>324.98999</ele>
        <time>2012-08-11T18:11:53Z</time>
      </trkpt>
      <trkpt lat="45.29063" lon="5.46638">
        <ele>326.75</ele>
        <time>2012-08-11T18:12:05Z</time>
      </trkpt>
      <trkpt lat="45.29058" lon="5.46586">
        <ele>330.22998</ele>
        <time>2012-08-11T18:12:17Z</time>
      </trkpt>
      <trkpt lat="45.29051" lon="5.46535">
        <ele>334.359985</ele>
        <time>2012-08-11T18:12:29Z</time>
      </trkpt>
      <trkpt lat="45.29042" lon="5.46485">
        <ele>338.850006</ele>
        <time>2012-08-11T18:12:41Z</time>
      </trkpt>
      <trkpt lat="45.29029" lon="5.4644">
        <ele>341.48999</ele>
        <time>2012-08-11T18:12:53Z</time>
      </trkpt>
      <trkpt lat="45.29013" lon="5.46395">
        <ele>345.880005</ele>
        <time>2012-08-11T18:13:05Z</time>
      </trkpt>
      <trkpt lat="45.28998" lon="5.46353">
        <ele>347.529999</ele>
        <time>2012-08-11T18:13:17Z</time>
      </trkpt>
      <trkpt lat="45.28981" lon="5.46313">
        <ele>351.940002</ele>
        <time>2012-08-11T18:13:29Z</time>
      </trkpt>
      <trkpt lat="45.2896" lon="5.46273">
        <ele>353.949982</ele>
        <time>2012-08-11T18:13:41Z</time>
      </trkpt>
      <trkpt lat="45.2893" lon="5.46241">
        <ele>348.859985</ele>
        <time>2012-08-11T18:13:53Z</time>
      </trkpt>
      <trkpt lat="45.28898" lon="5.46228">
        <ele>346.649994</ele>
        <time>2012-08-11T18:14:05Z</time>
      </trkpt>
      <trkpt lat="45.2886" lon="5.46234">
        <ele>359.47998</ele>
        <time>2012-08-11T18:14:17Z</time>
      </trkpt>
      <trkpt lat="45.28827" lon="5.46226">
        <ele>358.199982</ele>
        <time>2012-08-11T18:14:29Z</time>
      </trkpt>
      <trkpt lat="45.28791" lon="5.46209">
        <ele>356.22998</ele>
        <time>2012-08-11T18:14:41Z</time>
      </trkpt>
      <trkpt lat="45.28756" lon="5.46191">
        <ele>354.869995</ele>
        <time>2012-08-11T18:14:53Z</time>
      </trkpt>
      <trkpt lat="45.28714" lon="5.46159">
        <ele>356.079987</ele>
        <time>2012-08-11T18:15:05Z</time>
      </trkpt>
      <trkpt lat="45.28664" lon="5.46126">
        <ele>358.72998</ele>
        <time>2012-08-11T18:15:17Z</time>
      </trkpt>
      <trkpt lat="45.28609" lon="5.46118">
        <ele>357.23999</ele>
        <time>2012-08-11T18:15:29Z</time>
      </trkpt>
      <trkpt lat="45.28545" lon="5.46121">
        <ele>368.98999</ele>
        <time>2012-08-11T18:15:41Z</time>
      </trkpt>
      <trkpt lat="45.2848" lon="5.46126">
        <ele>375.759979</ele>
        <time>2012-08-11T18:15:53Z</time>
      </trkpt>
      <trkpt lat="45.28426" lon="5.46091">
        <ele>371.410004</ele>
        <time>2012-08-11T18:16:05Z</time>
      </trkpt>
      <trkpt lat="45.2837" lon="5.46041">
        <ele>362.449982</ele>
        <time>2012-08-11T18:16:17Z</time>
      </trkpt>
      <trkpt lat="45.28306" lon="5.45986">
        <ele>352.889984</ele>
        <time>2012-08-11T18:16:29Z</time>
      </trkpt>
      <trkpt lat="45.28273" lon="5.45957">
        <ele>354.380005</ele>
        <time>2012-08-11T18:16:35Z</time>
      </trkpt>
      <trkpt lat="45.28241" lon="5.45929">
        <ele>354.059998</ele>
        <time>2012-08-11T18:16:41Z</time>
      </trkpt>
      <trkpt lat="45.28209" lon="5.45898">
        <ele>355.559998</ele>
        <time>2012-08-11T18:16:47Z</time>
      </trkpt>
      <trkpt lat="45.28177" lon="5.45871">
        <ele>358.109985</ele>
        <time>2012-08-11T18:16:53Z</time>
      </trkpt>
      <trkpt lat="45.28146" lon="5.45843">
        <ele>361.410004</ele>
        <time>2012-08-11T18:16:59Z</time>
      </trkpt>
      <trkpt lat="45.28086" lon="5.45784">
        <ele>362.179993</ele>
        <time>2012-08-11T18:17:11Z</time>
      </trkpt>
      <trkpt lat="45.28049" lon="5.45761">
        <ele>363.639984</ele>
        <time>2012-08-11T18:17:17Z</time>
      </trkpt>
      <trkpt lat="45.28007" lon="5.45755">
        <ele>366.319977</ele>
        <time>2012-08-11T18:17:23Z</time>
      </trkpt>
      <trkpt lat="45.27963" lon="5.45751">
        <ele>366.319977</ele>
        <time>2012-08-11T18:17:29Z</time>
      </trkpt>
      <trkpt lat="45.27918" lon="5.45751">
        <ele>365.359985</ele>
        <time>2012-08-11T18:17:35Z</time>
      </trkpt>
      <trkpt lat="45.27876" lon="5.45745">
        <ele>367.299988</ele>
        <time>2012-08-11T18:17:41Z</time>
      </trkpt>
      <trkpt lat="45.27836" lon="5.45737">
        <ele>368.720001</ele>
        <time>2012-08-11T18:17:47Z</time>
      </trkpt>
      <trkpt lat="45.27796" lon="5.45734">
        <ele>367.699982</ele>
        <time>2012-08-11T18:17:53Z</time>
      </trkpt>
      <trkpt lat="45.27757" lon="5.45729">
        <ele>370.569977</ele>
        <time>2012-08-11T18:17:59Z</time>
      </trkpt>
      <trkpt lat="45.27716" lon="5.45726">
        <ele>370.549988</ele>
        <time>2012-08-11T18:18:05Z</time>
      </trkpt>
      <trkpt lat="45.27674" lon="5.45723">
        <ele>377.359985</ele>
        <time>2012-08-11T18:18:11Z</time>
      </trkpt>
      <trkpt lat="45.27641" lon="5.45697">
        <ele>375.160004</ele>
        <time>2012-08-11T18:18:17Z</time>
      </trkpt>
      <trkpt lat="45.27608" lon="5.45673">
        <ele>371.850006</ele>
        <time>2012-08-11T18:18:23Z</time>
      </trkpt>
      <trkpt lat="45.27579" lon="5.45642">
        <ele>370.869995</ele>
        <time>2012-08-11T18:18:29Z</time>
      </trkpt>
      <trkpt lat="45.27551" lon="5.4561">
        <ele>370.919983</ele>
        <time>2012-08-11T18:18:35Z</time>
      </trkpt>
      <trkpt lat="45.27491" lon="5.45545">
        <ele>370.329987</ele>
        <time>2012-08-11T18:18:47Z</time>
      </trkpt>
      <trkpt lat="45.27449" lon="5.45503">
        <ele>366.339996</ele>
        <time>2012-08-11T18:18:53Z</time>
      </trkpt>
      <trkpt lat="45.27402" lon="5.45458">
        <ele>363.97998</ele>
        <time>2012-08-11T18:18:59Z</time>
      </trkpt>
      <trkpt lat="45.27351" lon="5.45408">
        <ele>360.25</ele>
        <time>2012-08-11T18:19:05Z</time>
      </trkpt>
      <trkpt lat="45.27294" lon="5.45352">
        <ele>353.940002</ele>
        <time>2012-08-11T18:19:11Z</time>
      </trkpt>
      <trkpt lat="45.27235" lon="5.45291">
        <ele>348.559998</ele>
        <time>2012-08-11T18:19:17Z</time>
      </trkpt>
      <trkpt lat="45.27174" lon="5.4523">
        <ele>344.019989</ele>
        <time>2012-08-11T18:19:23Z</time>
      </trkpt>
      <trkpt lat="45.27114" lon="5.45173">
        <ele>342.22998</ele>
        <time>2012-08-11T18:19:29Z</time>
      </trkpt>
      <trkpt lat="45.27054" lon="5.45115">
        <ele>335.639984</ele>
        <time>2012-08-11T18:19:35Z</time>
      </trkpt>
      <trkpt lat="45.26992" lon="5.45055">
        <ele>332.279999</ele>
        <time>2012-08-11T18:19:41Z</time>
      </trkpt>
      <trkpt lat="45.26934" lon="5.44998">
        <ele>328.559998</ele>
        <time>2012-08-11T18:19:47Z</time>
      </trkpt>
      <trkpt lat="45.26878" lon="5.44938">
        <ele>322.809998</ele>
        <time>2012-08-11T18:19:53Z</time>
      </trkpt>
      <trkpt lat="45.26821" lon="5.44894">
        <ele>314.789978</ele>
        <time>2012-08-11T18:19:59Z</time>
      </trkpt>
      <trkpt lat="45.26775" lon="5.44866">
        <ele>317.859985</ele>
        <time>2012-08-11T18:20:05Z</time>
      </trkpt>
      <trkpt lat="45.2673" lon="5.4486">
        <ele>320.699982</ele>
        <time>2012-08-11T18:20:11Z</time>
      </trkpt>
      <trkpt lat="45.26688" lon="5.44858">
        <ele>324.410004</ele>
        <time>2012-08-11T18:20:17Z</time>
      </trkpt>
      <trkpt lat="45.26656" lon="5.4485">
        <ele>325.009979</ele>
        <time>2012-08-11T18:20:23Z</time>
      </trkpt>
      <trkpt lat="45.26581" lon="5.44837">
        <ele>322.119995</ele>
        <time>2012-08-11T18:20:35Z</time>
      </trkpt>
      <trkpt lat="45.26545" lon="5.44827">
        <ele>321.419983</ele>
        <time>2012-08-11T18:20:41Z</time>
      </trkpt>
      <trkpt lat="45.26472" lon="5.44805">
        <ele>323.910004</ele>
        <time>2012-08-11T18:20:53Z</time>
      </trkpt>
      <trkpt lat="45.26426" lon="5.44797">
        <ele>322.339996</ele>
        <time>2012-08-11T18:20:59Z</time>
      </trkpt>
      <trkpt lat="45.26378" lon="5.44789">
        <ele>321.470001</ele>
        <time>2012-08-11T18:21:05Z</time>
      </trkpt>
      <trkpt lat="45.26328" lon="5.44777">
        <ele>318.97998</ele>
        <time>2012-08-11T18:21:11Z</time>
      </trkpt>
      <trkpt lat="45.26275" lon="5.44764">
        <ele>312</ele>
        <time>2012-08-11T18:21:17Z</time>
      </trkpt>
      <trkpt lat="45.26214" lon="5.44751">
        <ele>308.039978</ele>
        <time>2012-08-11T18:21:23Z</time>
      </trkpt>
      <trkpt lat="45.26153" lon="5.44738">
        <ele>304.639984</ele>
        <time>2012-08-11T18:21:29Z</time>
      </trkpt>
      <trkpt lat="45.26098" lon="5.44727">
        <ele>304.75</ele>
        <time>2012-08-11T18:21:35Z</time>
      </trkpt>
      <trkpt lat="45.26046" lon="5.44717">
        <ele>303.759979</ele>
        <time>2012-08-11T18:21:41Z</time>
      </trkpt>
      <trkpt lat="45.25995" lon="5.44701">
        <ele>304.669983</ele>
        <time>2012-08-11T18:21:47Z</time>
      </trkpt>
      <trkpt lat="45.25945" lon="5.4469">
        <ele>304.459991</ele>
        <time>2012-08-11T18:21:53Z</time>
      </trkpt>
      <trkpt lat="45.25898" lon="5.44681">
        <ele>303.539978</ele>
        <time>2012-08-11T18:21:59Z</time>
      </trkpt>
      <trkpt lat="45.25848" lon="5.44673">
        <ele>301.609985</ele>
        <time>2012-08-11T18:22:05Z</time>
      </trkpt>
      <trkpt lat="45.25798" lon="5.44664">
        <ele>302.660004</ele>
        <time>2012-08-11T18:22:11Z</time>
      </trkpt>
      <trkpt lat="45.25749" lon="5.44651">
        <ele>302.22998</ele>
        <time>2012-08-11T18:22:17Z</time>
      </trkpt>
      <trkpt lat="45.257" lon="5.44642">
        <ele>299.040009</ele>
        <time>2012-08-11T18:22:23Z</time>
      </trkpt>
      <trkpt lat="45.2565" lon="5.44632">
        <ele>296.019989</ele>
        <time>2012-08-11T18:22:29Z</time>
      </trkpt>
      <trkpt lat="45.256" lon="5.44619">
        <ele>296.25</ele>
        <time>2012-08-11T18:22:35Z</time>
      </trkpt>
      <trkpt lat="45.25551" lon="5.44608">
        <ele>294.679993</ele>
        <time>2012-08-11T18:22:41Z</time>
      </trkpt>
      <trkpt lat="45.25501" lon="5.44599">
        <ele>294.72998</ele>
        <time>2012-08-11T18:22:47Z</time>
      </trkpt>
      <trkpt lat="45.25452" lon="5.44589">
        <ele>295.660004</ele>
        <time>2012-08-11T18:22:53Z</time>
      </trkpt>
      <trkpt lat="45.25404" lon="5.44576">
        <ele>296.5</ele>
        <time>2012-08-11T18:22:59Z</time>
      </trkpt>
      <trkpt lat="45.25357" lon="5.44566">
        <ele>297.829987</ele>
        <time>2012-08-11T18:23:05Z</time>
      </trkpt>
      <trkpt lat="45.25311" lon="5.44559">
        <ele>301.259979</ele>
        <time>2012-08-11T18:23:11Z</time>
      </trkpt>
      <trkpt lat="45.25264" lon="5.44558">
        <ele>304.880005</ele>
        <time>2012-08-11T18:23:17Z</time>
      </trkpt>
      <trkpt lat="45.2522" lon="5.44553">
        <ele>306.139984</ele>
        <time>2012-08-11T18:23:23Z</time>
      </trkpt>
      <trkpt lat="45.25175" lon="5.44552">
        <ele>306.869995</ele>
        <time>2012-08-11T18:23:29Z</time>
      </trkpt>
      <trkpt lat="45.25129" lon="5.44551">
        <ele>306.720001</ele>
        <time>2012-08-11T18:23:35Z</time>
      </trkpt>
      <trkpt lat="45.25082" lon="5.44549">
        <ele>306.429993</ele>
        <time>2012-08-11T18:23:41Z</time>
      </trkpt>
      <trkpt lat="45.25037" lon="5.44544">
        <ele>305.910004</ele>
        <time>2012-08-11T18:23:47Z</time>
      </trkpt>
      <trkpt lat="45.24994" lon="5.44539">
        <ele>305.059998</ele>
        <time>2012-08-11T18:23:53Z</time>
      </trkpt>
      <trkpt lat="45.24948" lon="5.44536">
        <ele>303.889984</ele>
        <time>2012-08-11T18:23:59Z</time>
      </trkpt>
      <trkpt lat="45.24904" lon="5.44533">
        <ele>306.299988</ele>
        <time>2012-08-11T18:24:05Z</time>
      </trkpt>
      <trkpt lat="45.24859" lon="5.44531">
        <ele>307.97998</ele>
        <time>2012-08-11T18:24:11Z</time>
      </trkpt>
      <trkpt lat="45.24814" lon="5.4453">
        <ele>310.359985</ele>
        <time>2012-08-11T18:24:17Z</time>
      </trkpt>
      <trkpt lat="45.24768" lon="5.44526">
        <ele>312.859985</ele>
        <time>2012-08-11T18:24:23Z</time>
      </trkpt>
      <trkpt lat="45.24721" lon="5.44524">
        <ele>310.519989</ele>
        <time>2012-08-11T18:24:29Z</time>
      </trkpt>
      <trkpt lat="45.24674" lon="5.4452">
        <ele>308.269989</ele>
        <time>2012-08-11T18:24:35Z</time>
      </trkpt>
      <trkpt lat="45.24627" lon="5.44516">
        <ele>301.320007</ele>
        <time>2012-08-11T18:24:41Z</time>
      </trkpt>
      <trkpt lat="45.24578" lon="5.44514">
        <ele>294.779999</ele>
        <time>2012-08-11T18:24:47Z</time>
      </trkpt>
      <trkpt lat="45.24528" lon="5.4451">
        <ele>293.540009</ele>
        <time>2012-08-11T18:24:53Z</time>
      </trkpt>
      <trkpt lat="45.24479" lon="5.44509">
        <ele>295.509979</ele>
        <time>2012-08-11T18:24:59Z</time>
      </trkpt>
      <trkpt lat="45.24432" lon="5.44504">
        <ele>297.609985</ele>
        <time>2012-08-11T18:25:05Z</time>
      </trkpt>
      <trkpt lat="45.24387" lon="5.44487">
        <ele>294.790009</ele>
        <time>2012-08-11T18:25:11Z</time>
      </trkpt>
      <trkpt lat="45.24346" lon="5.44473">
        <ele>296.570007</ele>
        <time>2012-08-11T18:25:17Z</time>
      </trkpt>
      <trkpt lat="45.24306" lon="5.4446">
        <ele>297.279999</ele>
        <time>2012-08-11T18:25:23Z</time>
      </trkpt>
      <trkpt lat="45.24264" lon="5.44451">
        <ele>296.410004</ele>
        <time>2012-08-11T18:25:29Z</time>
      </trkpt>
      <trkpt lat="45.24222" lon="5.44441">
        <ele>296.509979</ele>
        <time>2012-08-11T18:25:35Z</time>
      </trkpt>
      <trkpt lat="45.24176" lon="5.44431">
        <ele>294.279999</ele>
        <time>2012-08-11T18:25:41Z</time>
      </trkpt>
      <trkpt lat="45.24129" lon="5.44419">
        <ele>292.440002</ele>
        <time>2012-08-11T18:25:47Z</time>
      </trkpt>
      <trkpt lat="45.24082" lon="5.44414">
        <ele>289.470001</ele>
        <time>2012-08-11T18:25:53Z</time>
      </trkpt>
      <trkpt lat="45.24026" lon="5.44419">
        <ele>287.309998</ele>
        <time>2012-08-11T18:25:59Z</time>
      </trkpt>
      <trkpt lat="45.23956" lon="5.44461">
        <ele>283.660004</ele>
        <time>2012-08-11T18:26:05Z</time>
      </trkpt>
      <trkpt lat="45.23875" lon="5.44474">
        <ele>273.649994</ele>
        <time>2012-08-11T18:26:11Z</time>
      </trkpt>
      <trkpt lat="45.238" lon="5.4445">
        <ele>266.350006</ele>
        <time>2012-08-11T18:26:17Z</time>
      </trkpt>
      <trkpt lat="45.23776" lon="5.44442">
        <ele>257.75</ele>
        <time>2012-08-11T18:26:23Z</time>
      </trkpt>
      <trkpt lat="45.23737" lon="5.44433">
        <ele>256.820007</ele>
        <time>2012-08-11T18:26:35Z</time>
      </trkpt>
      <trkpt lat="45.23653" lon="5.44415">
        <ele>259.589996</ele>
        <time>2012-08-11T18:26:47Z</time>
      </trkpt>
      <trkpt lat="45.23605" lon="5.44402">
        <ele>259.329987</ele>
        <time>2012-08-11T18:26:53Z</time>
      </trkpt>
      <trkpt lat="45.23557" lon="5.44395">
        <ele>259.75</ele>
        <time>2012-08-11T18:26:59Z</time>
      </trkpt>
      <trkpt lat="45.2351" lon="5.44388">
        <ele>260.169983</ele>
        <time>2012-08-11T18:27:05Z</time>
      </trkpt>
      <trkpt lat="45.23466" lon="5.44375">
        <ele>256.720001</ele>
        <time>2012-08-11T18:27:11Z</time>
      </trkpt>
      <trkpt lat="45.2342" lon="5.44369">
        <ele>258.600006</ele>
        <time>2012-08-11T18:27:17Z</time>
      </trkpt>
      <trkpt lat="45.23375" lon="5.44359">
        <ele>256.889984</ele>
        <time>2012-08-11T18:27:23Z</time>
      </trkpt>
      <trkpt lat="45.2333" lon="5.44348">
        <ele>256.850006</ele>
        <time>2012-08-11T18:27:29Z</time>
      </trkpt>
      <trkpt lat="45.23282" lon="5.44342">
        <ele>259.589996</ele>
        <time>2012-08-11T18:27:35Z</time>
      </trkpt>
      <trkpt lat="45.23237" lon="5.44333">
        <ele>259.98999</ele>
        <time>2012-08-11T18:27:41Z</time>
      </trkpt>
      <trkpt lat="45.23188" lon="5.44317">
        <ele>258.690002</ele>
        <time>2012-08-11T18:27:47Z</time>
      </trkpt>
      <trkpt lat="45.2314" lon="5.44293">
        <ele>257.699982</ele>
        <time>2012-08-11T18:27:53Z</time>
      </trkpt>
      <trkpt lat="45.23091" lon="5.4427">
        <ele>255.37999</ele>
        <time>2012-08-11T18:27:59Z</time>
      </trkpt>
      <trkpt lat="45.23045" lon="5.44246">
        <ele>256.100006</ele>
        <time>2012-08-11T18:28:05Z</time>
      </trkpt>
      <trkpt lat="45.22997" lon="5.44222">
        <ele>256.079987</ele>
        <time>2012-08-11T18:28:11Z</time>
      </trkpt>
      <trkpt lat="45.22951" lon="5.44189">
        <ele>253.199997</ele>
        <time>2012-08-11T18:28:17Z</time>
      </trkpt>
      <trkpt lat="45.22908" lon="5.44152">
        <ele>248.809998</ele>
        <time>2012-08-11T18:28:23Z</time>
      </trkpt>
      <trkpt lat="45.22866" lon="5.44118">
        <ele>245.509995</ele>
        <time>2012-08-11T18:28:29Z</time>
      </trkpt>
      <trkpt lat="45.22823" lon="5.44086">
        <ele>243.929993</ele>
        <time>2012-08-11T18:28:35Z</time>
      </trkpt>
      <trkpt lat="45.22783" lon="5.44052">
        <ele>242.87999</ele>
        <time>2012-08-11T18:28:41Z</time>
      </trkpt>
      <trkpt lat="45.22743" lon="5.44022">
        <ele>240.399994</ele>
        <time>2012-08-11T18:28:47Z</time>
      </trkpt>
      <trkpt lat="45.22705" lon="5.44008">
        <ele>239.889999</ele>
        <time>2012-08-11T18:28:53Z</time>
      </trkpt>
      <trkpt lat="45.22706" lon="5.44013">
        <ele>235.470001</ele>
        <time>2012-08-11T18:29:05Z</time>
      </trkpt>
      <trkpt lat="45.22695" lon="5.44016">
        <ele>237.819992</ele>
        <time>2012-08-11T18:29:17Z</time>
      </trkpt>
      <trkpt lat="45.22633" lon="5.43996">
        <ele>242.939987</ele>
        <time>2012-08-11T18:29:29Z</time>
      </trkpt>
      <trkpt lat="45.22591" lon="5.43993">
        <ele>250.369995</ele>
        <time>2012-08-11T18:29:35Z</time>
      </trkpt>
      <trkpt lat="45.22546" lon="5.43983">
        <ele>249.599991</ele>
        <time>2012-08-11T18:29:41Z</time>
      </trkpt>
      <trkpt lat="45.22495" lon="5.43985">
        <ele>247.649994</ele>
        <time>2012-08-11T18:29:47Z</time>
      </trkpt>
      <trkpt lat="45.22452" lon="5.43985">
        <ele>236.439987</ele>
        <time>2012-08-11T18:29:53Z</time>
      </trkpt>
      <trkpt lat="45.22409" lon="5.43975">
        <ele>237.919998</ele>
        <time>2012-08-11T18:29:59Z</time>
      </trkpt>
      <trkpt lat="45.22371" lon="5.43965">
        <ele>243.519989</ele>
        <time>2012-08-11T18:30:05Z</time>
      </trkpt>
      <trkpt lat="45.22334" lon="5.43949">
        <ele>242.589996</ele>
        <time>2012-08-11T18:30:11Z</time>
      </trkpt>
      <trkpt lat="45.2231" lon="5.43914">
        <ele>246.309998</ele>
        <time>2012-08-11T18:30:17Z</time>
      </trkpt>
      <trkpt lat="45.2225" lon="5.43858">
        <ele>243.610001</ele>
        <time>2012-08-11T18:30:29Z</time>
      </trkpt>
      <trkpt lat="45.22219" lon="5.43829">
        <ele>243.349991</ele>
        <time>2012-08-11T18:30:35Z</time>
      </trkpt>
      <trkpt lat="45.2216" lon="5.43769">
        <ele>246.949997</ele>
        <time>2012-08-11T18:30:47Z</time>
      </trkpt>
      <trkpt lat="45.22102" lon="5.43711">
        <ele>248.369995</ele>
        <time>2012-08-11T18:30:59Z</time>
      </trkpt>
      <trkpt lat="45.22044" lon="5.43656">
        <ele>247.799988</ele>
        <time>2012-08-11T18:31:11Z</time>
      </trkpt>
      <trkpt lat="45.21985" lon="5.43603">
        <ele>249.769989</ele>
        <time>2012-08-11T18:31:23Z</time>
      </trkpt>
      <trkpt lat="45.21923" lon="5.43546">
        <ele>249.189987</ele>
        <time>2012-08-11T18:31:35Z</time>
      </trkpt>
      <trkpt lat="45.2189" lon="5.43516">
        <ele>249.559998</ele>
        <time>2012-08-11T18:31:41Z</time>
      </trkpt>
      <trkpt lat="45.21856" lon="5.43484">
        <ele>250.409988</ele>
        <time>2012-08-11T18:31:47Z</time>
      </trkpt>
      <trkpt lat="45.21824" lon="5.43446">
        <ele>249.529999</ele>
        <time>2012-08-11T18:31:53Z</time>
      </trkpt>
      <trkpt lat="45.21795" lon="5.43401">
        <ele>249.479996</ele>
        <time>2012-08-11T18:31:59Z</time>
      </trkpt>
      <trkpt lat="45.21767" lon="5.43354">
        <ele>249.470001</ele>
        <time>2012-08-11T18:32:05Z</time>
      </trkpt>
      <trkpt lat="45.21748" lon="5.43297">
        <ele>249.539993</ele>
        <time>2012-08-11T18:32:11Z</time>
      </trkpt>
      <trkpt lat="45.21734" lon="5.43241">
        <ele>250.159988</ele>
        <time>2012-08-11T18:32:17Z</time>
      </trkpt>
      <trkpt lat="45.21719" lon="5.43187">
        <ele>250.899994</ele>
        <time>2012-08-11T18:32:23Z</time>
      </trkpt>
      <trkpt lat="45.21706" lon="5.43135">
        <ele>252.189987</ele>
        <time>2012-08-11T18:32:29Z</time>
      </trkpt>
      <trkpt lat="45.21691" lon="5.43083">
        <ele>253.360001</ele>
        <time>2012-08-11T18:32:35Z</time>
      </trkpt>
      <trkpt lat="45.21676" lon="5.43034">
        <ele>251.309998</ele>
        <time>2012-08-11T18:32:41Z</time>
      </trkpt>
      <trkpt lat="45.21662" lon="5.42983">
        <ele>253.599991</ele>
        <time>2012-08-11T18:32:47Z</time>
      </trkpt>
      <trkpt lat="45.2165" lon="5.42935">
        <ele>257.329987</ele>
        <time>2012-08-11T18:32:53Z</time>
      </trkpt>
      <trkpt lat="45.21623" lon="5.42842">
        <ele>259.259979</ele>
        <time>2012-08-11T18:33:05Z</time>
      </trkpt>
      <trkpt lat="45.2161" lon="5.4279">
        <ele>257.459991</ele>
        <time>2012-08-11T18:33:11Z</time>
      </trkpt>
      <trkpt lat="45.21595" lon="5.42739">
        <ele>259.279999</ele>
        <time>2012-08-11T18:33:17Z</time>
      </trkpt>
      <trkpt lat="45.21555" lon="5.42623">
        <ele>252.649994</ele>
        <time>2012-08-11T18:33:29Z</time>
      </trkpt>
      <trkpt lat="45.21537" lon="5.42571">
        <ele>252.589996</ele>
        <time>2012-08-11T18:33:35Z</time>
      </trkpt>
      <trkpt lat="45.21521" lon="5.42512">
        <ele>254.259995</ele>
        <time>2012-08-11T18:33:41Z</time>
      </trkpt>
      <trkpt lat="45.21517" lon="5.42449">
        <ele>254.559998</ele>
        <time>2012-08-11T18:33:47Z</time>
      </trkpt>
      <trkpt lat="45.21515" lon="5.42387">
        <ele>263.369995</ele>
        <time>2012-08-11T18:33:53Z</time>
      </trkpt>
      <trkpt lat="45.21507" lon="5.42326">
        <ele>265.169983</ele>
        <time>2012-08-11T18:33:59Z</time>
      </trkpt>
      <trkpt lat="45.21496" lon="5.42269">
        <ele>265.160004</ele>
        <time>2012-08-11T18:34:05Z</time>
      </trkpt>
      <trkpt lat="45.21484" lon="5.42212">
        <ele>263.149994</ele>
        <time>2012-08-11T18:34:11Z</time>
      </trkpt>
      <trkpt lat="45.21475" lon="5.42157">
        <ele>261.449982</ele>
        <time>2012-08-11T18:34:17Z</time>
      </trkpt>
      <trkpt lat="45.21465" lon="5.42104">
        <ele>259.509979</ele>
        <time>2012-08-11T18:34:23Z</time>
      </trkpt>
      <trkpt lat="45.21455" lon="5.4205">
        <ele>260.540009</ele>
        <time>2012-08-11T18:34:29Z</time>
      </trkpt>
      <trkpt lat="45.21444" lon="5.41999">
        <ele>258.449982</ele>
        <time>2012-08-11T18:34:35Z</time>
      </trkpt>
      <trkpt lat="45.21418" lon="5.41907">
        <ele>255.389999</ele>
        <time>2012-08-11T18:34:47Z</time>
      </trkpt>
      <trkpt lat="45.21404" lon="5.41803">
        <ele>263.190002</ele>
        <time>2012-08-11T18:34:59Z</time>
      </trkpt>
      <trkpt lat="45.21401" lon="5.41751">
        <ele>266.029999</ele>
        <time>2012-08-11T18:35:05Z</time>
      </trkpt>
      <trkpt lat="45.21389" lon="5.41701">
        <ele>266.790009</ele>
        <time>2012-08-11T18:35:11Z</time>
      </trkpt>
      <trkpt lat="45.21378" lon="5.41651">
        <ele>265.899994</ele>
        <time>2012-08-11T18:35:17Z</time>
      </trkpt>
      <trkpt lat="45.21368" lon="5.41596">
        <ele>267.699982</ele>
        <time>2012-08-11T18:35:23Z</time>
      </trkpt>
      <trkpt lat="45.21356" lon="5.41541">
        <ele>267.369995</ele>
        <time>2012-08-11T18:35:29Z</time>
      </trkpt>
      <trkpt lat="45.21345" lon="5.41482">
        <ele>268.820007</ele>
        <time>2012-08-11T18:35:35Z</time>
      </trkpt>
      <trkpt lat="45.21335" lon="5.41425">
        <ele>269.119995</ele>
        <time>2012-08-11T18:35:41Z</time>
      </trkpt>
      <trkpt lat="45.21325" lon="5.41373">
        <ele>268.290009</ele>
        <time>2012-08-11T18:35:47Z</time>
      </trkpt>
      <trkpt lat="45.21315" lon="5.41325">
        <ele>267.880005</ele>
        <time>2012-08-11T18:35:53Z</time>
      </trkpt>
      <trkpt lat="45.21296" lon="5.41222">
        <ele>262.549988</ele>
        <time>2012-08-11T18:36:05Z</time>
      </trkpt>
      <trkpt lat="45.21286" lon="5.41169">
        <ele>261.959991</ele>
        <time>2012-08-11T18:36:11Z</time>
      </trkpt>
      <trkpt lat="45.21277" lon="5.41117">
        <ele>261.5</ele>
        <time>2012-08-11T18:36:17Z</time>
      </trkpt>
      <trkpt lat="45.21267" lon="5.41065">
        <ele>260.389984</ele>
        <time>2012-08-11T18:36:23Z</time>
      </trkpt>
      <trkpt lat="45.21256" lon="5.41014">
        <ele>260.279999</ele>
        <time>2012-08-11T18:36:29Z</time>
      </trkpt>
      <trkpt lat="45.21245" lon="5.40964">
        <ele>260.029999</ele>
        <time>2012-08-11T18:36:35Z</time>
      </trkpt>
      <trkpt lat="45.21233" lon="5.40916">
        <ele>261.410004</ele>
        <time>2012-08-11T18:36:41Z</time>
      </trkpt>
      <trkpt lat="45.21221" lon="5.40865">
        <ele>263.699982</ele>
        <time>2012-08-11T18:36:47Z</time>
      </trkpt>
      <trkpt lat="45.21209" lon="5.40815">
        <ele>263.160004</ele>
        <time>2012-08-11T18:36:53Z</time>
      </trkpt>
      <trkpt lat="45.21196" lon="5.40766">
        <ele>260.940002</ele>
        <time>2012-08-11T18:36:59Z</time>
      </trkpt>
      <trkpt lat="45.21169" lon="5.40672">
        <ele>262.169983</ele>
        <time>2012-08-11T18:37:11Z</time>
      </trkpt>
      <trkpt lat="45.21143" lon="5.40579">
        <ele>263.509979</ele>
        <time>2012-08-11T18:37:23Z</time>
      </trkpt>
      <trkpt lat="45.21117" lon="5.4049">
        <ele>270.949982</ele>
        <time>2012-08-11T18:37:35Z</time>
      </trkpt>
      <trkpt lat="45.21091" lon="5.40409">
        <ele>270.190002</ele>
        <time>2012-08-11T18:37:47Z</time>
      </trkpt>
      <trkpt lat="45.2105" lon="5.4034">
        <ele>267.269989</ele>
        <time>2012-08-11T18:37:59Z</time>
      </trkpt>
      <trkpt lat="45.21014" lon="5.40286">
        <ele>285.459991</ele>
        <time>2012-08-11T18:38:11Z</time>
      </trkpt>
      <trkpt lat="45.20987" lon="5.40209">
        <ele>293.459991</ele>
        <time>2012-08-11T18:38:23Z</time>
      </trkpt>
      <trkpt lat="45.20958" lon="5.40112">
        <ele>285.209991</ele>
        <time>2012-08-11T18:38:35Z</time>
      </trkpt>
      <trkpt lat="45.20936" lon="5.40066">
        <ele>276.669983</ele>
        <time>2012-08-11T18:38:41Z</time>
      </trkpt>
      <trkpt lat="45.2091" lon="5.4003">
        <ele>267.459991</ele>
        <time>2012-08-11T18:38:53Z</time>
      </trkpt>
      <trkpt lat="45.20889" lon="5.40026">
        <ele>270.359985</ele>
        <time>2012-08-11T18:39:05Z</time>
      </trkpt>
      <trkpt lat="45.20824" lon="5.40015">
        <ele>274.259979</ele>
        <time>2012-08-11T18:39:17Z</time>
      </trkpt>
      <trkpt lat="45.20761" lon="5.39993">
        <ele>273.22998</ele>
        <time>2012-08-11T18:39:29Z</time>
      </trkpt>
      <trkpt lat="45.20702" lon="5.39965">
        <ele>275.869995</ele>
        <time>2012-08-11T18:39:41Z</time>
      </trkpt>
      <trkpt lat="45.20722" lon="5.39974">
        <ele>281.320007</ele>
        <time>2012-08-11T18:39:53Z</time>
      </trkpt>
      <trkpt lat="45.20789" lon="5.4">
        <ele>279.419983</ele>
        <time>2012-08-11T18:40:05Z</time>
      </trkpt>
      <trkpt lat="45.20855" lon="5.40027">
        <ele>279.919983</ele>
        <time>2012-08-11T18:40:17Z</time>
      </trkpt>
      <trkpt lat="45.20926" lon="5.40009">
        <ele>265.809998</ele>
        <time>2012-08-11T18:40:29Z</time>
      </trkpt>
      <trkpt lat="45.20985" lon="5.39956">
        <ele>262.540009</ele>
        <time>2012-08-11T18:40:41Z</time>
      </trkpt>
      <trkpt lat="45.2103" lon="5.39901">
        <ele>272.929993</ele>
        <time>2012-08-11T18:40:53Z</time>
      </trkpt>
      <trkpt lat="45.2107" lon="5.39852">
        <ele>288.160004</ele>
        <time>2012-08-11T18:41:05Z</time>
      </trkpt>
      <trkpt lat="45.21112" lon="5.39827">
        <ele>310.25</ele>
        <time>2012-08-11T18:41:17Z</time>
      </trkpt>
      <trkpt lat="45.21151" lon="5.39798">
        <ele>315.259979</ele>
        <time>2012-08-11T18:41:29Z</time>
      </trkpt>
      <trkpt lat="45.21186" lon="5.3978">
        <ele>313.109985</ele>
        <time>2012-08-11T18:41:41Z</time>
      </trkpt>
      <trkpt lat="45.21221" lon="5.39772">
        <ele>308.109985</ele>
        <time>2012-08-11T18:41:53Z</time>
      </trkpt>
      <trkpt lat="45.21231" lon="5.39761">
        <ele>302.380005</ele>
        <time>2012-08-11T18:42:05Z</time>
      </trkpt>
      <trkpt lat="45.2123" lon="5.39761">
        <ele>302.789978</ele>
        <time>2012-08-11T18:42:17Z</time>
      </trkpt>
      <trkpt lat="45.2123" lon="5.39761">
        <ele>302.789978</ele>
        <time>2012-08-11T18:42:29Z</time>
      </trkpt>
      <trkpt lat="45.2123" lon="5.39761">
        <ele>302.789978</ele>
        <time>2012-08-11T18:42:41Z</time>
      </trkpt>
      <trkpt lat="45.2123" lon="5.39761">
        <ele>302.789978</ele>
        <time>2012-08-11T18:42:53Z</time>
      </trkpt>
      <trkpt lat="45.2123" lon="5.39761">
        <ele>302.789978</ele>
        <time>2012-08-11T18:43:05Z</time>
      </trkpt>
      <trkpt lat="45.2123" lon="5.39761">
        <ele>302.789978</ele>
        <time>2012-08-11T18:43:17Z</time>
      </trkpt>
      <trkpt lat="45.2123" lon="5.39761">
        <ele>302.789978</ele>
        <time>2012-08-11T18:43:29Z</time>
      </trkpt>
      <trkpt lat="45.2123" lon="5.39761">
        <ele>302.789978</ele>
        <time>2012-08-11T18:43:41Z</time>
      </trkpt>
      <trkpt lat="45.2123" lon="5.39761">
        <ele>302.789978</ele>
        <time>2012-08-11T18:43:53Z</time>
      </trkpt>
      <trkpt lat="45.21219" lon="5.39749">
        <ele>304.799988</ele>
        <time>2012-08-11T18:44:05Z</time>
      </trkpt>
      <trkpt lat="45.21159" lon="5.39771">
        <ele>294.119995</ele>
        <time>2012-08-11T18:44:17Z</time>
      </trkpt>
      <trkpt lat="45.21111" lon="5.39815">
        <ele>293.790009</ele>
        <time>2012-08-11T18:44:23Z</time>
      </trkpt>
      <trkpt lat="45.21056" lon="5.39848">
        <ele>278.320007</ele>
        <time>2012-08-11T18:44:29Z</time>
      </trkpt>
      <trkpt lat="45.21009" lon="5.39906">
        <ele>267.209991</ele>
        <time>2012-08-11T18:44:35Z</time>
      </trkpt>
      <trkpt lat="45.20958" lon="5.39967">
        <ele>263.809998</ele>
        <time>2012-08-11T18:44:41Z</time>
      </trkpt>
      <trkpt lat="45.20918" lon="5.39999">
        <ele>263.910004</ele>
        <time>2012-08-11T18:44:47Z</time>
      </trkpt>
      <trkpt lat="45.20895" lon="5.40026">
        <ele>264.570007</ele>
        <time>2012-08-11T18:44:53Z</time>
      </trkpt>
      <trkpt lat="45.2094" lon="5.40089">
        <ele>266.75</ele>
        <time>2012-08-11T18:45:05Z</time>
      </trkpt>
      <trkpt lat="45.20969" lon="5.4014">
        <ele>267.970001</ele>
        <time>2012-08-11T18:45:17Z</time>
      </trkpt>
      <trkpt lat="45.20981" lon="5.4016">
        <ele>276.779999</ele>
        <time>2012-08-11T18:45:29Z</time>
      </trkpt>
      <trkpt lat="45.20981" lon="5.4016">
        <ele>276.779999</ele>
        <time>2012-08-11T18:45:41Z</time>
      </trkpt>
      <trkpt lat="45.20981" lon="5.4016">
        <ele>276.779999</ele>
        <time>2012-08-11T18:45:53Z</time>
      </trkpt>
      <trkpt lat="45.20981" lon="5.4016">
        <ele>276.779999</ele>
        <time>2012-08-11T18:46:05Z</time>
      </trkpt>
      <trkpt lat="45.20981" lon="5.4016">
        <ele>276.779999</ele>
        <time>2012-08-11T18:46:17Z</time>
      </trkpt>
      <trkpt lat="45.20981" lon="5.4016">
        <ele>276.779999</ele>
        <time>2012-08-11T18:46:29Z</time>
      </trkpt>
      <trkpt lat="45.20964" lon="5.40133">
        <ele>287.449982</ele>
        <time>2012-08-11T18:46:41Z</time>
      </trkpt>
      <trkpt lat="45.20936" lon="5.4007">
        <ele>270.009979</ele>
        <time>2012-08-11T18:46:53Z</time>
      </trkpt>
      <trkpt lat="45.20908" lon="5.40023">
        <ele>264.839996</ele>
        <time>2012-08-11T18:47:05Z</time>
      </trkpt>
      <trkpt lat="45.20844" lon="5.40019">
        <ele>263.070007</ele>
        <time>2012-08-11T18:47:17Z</time>
      </trkpt>
      <trkpt lat="45.20804" lon="5.4001">
        <ele>261.970001</ele>
        <time>2012-08-11T18:47:23Z</time>
      </trkpt>
      <trkpt lat="45.20765" lon="5.39992">
        <ele>263.029999</ele>
        <time>2012-08-11T18:47:29Z</time>
      </trkpt>
      <trkpt lat="45.20723" lon="5.39974">
        <ele>264.919983</ele>
        <time>2012-08-11T18:47:35Z</time>
      </trkpt>
      <trkpt lat="45.20679" lon="5.39959">
        <ele>268.299988</ele>
        <time>2012-08-11T18:47:41Z</time>
      </trkpt>
      <trkpt lat="45.20637" lon="5.39944">
        <ele>267.720001</ele>
        <time>2012-08-11T18:47:47Z</time>
      </trkpt>
      <trkpt lat="45.20594" lon="5.39926">
        <ele>264.720001</ele>
        <time>2012-08-11T18:47:53Z</time>
      </trkpt>
      <trkpt lat="45.20545" lon="5.39908">
        <ele>263.97998</ele>
        <time>2012-08-11T18:47:59Z</time>
      </trkpt>
      <trkpt lat="45.20498" lon="5.39892">
        <ele>263.399994</ele>
        <time>2012-08-11T18:48:05Z</time>
      </trkpt>
      <trkpt lat="45.2045" lon="5.39877">
        <ele>262.820007</ele>
        <time>2012-08-11T18:48:11Z</time>
      </trkpt>
      <trkpt lat="45.20403" lon="5.39859">
        <ele>261.839996</ele>
        <time>2012-08-11T18:48:17Z</time>
      </trkpt>
      <trkpt lat="45.20354" lon="5.3984">
        <ele>260.899994</ele>
        <time>2012-08-11T18:48:23Z</time>
      </trkpt>
      <trkpt lat="45.20304" lon="5.39821">
        <ele>259.100006</ele>
        <time>2012-08-11T18:48:29Z</time>
      </trkpt>
      <trkpt lat="45.20253" lon="5.398">
        <ele>255.979996</ele>
        <time>2012-08-11T18:48:35Z</time>
      </trkpt>
      <trkpt lat="45.20202" lon="5.39782">
        <ele>256.22998</ele>
        <time>2012-08-11T18:48:41Z</time>
      </trkpt>
      <trkpt lat="45.20149" lon="5.39766">
        <ele>254.759995</ele>
        <time>2012-08-11T18:48:47Z</time>
      </trkpt>
      <trkpt lat="45.20097" lon="5.39751">
        <ele>253.229996</ele>
        <time>2012-08-11T18:48:53Z</time>
      </trkpt>
      <trkpt lat="45.20047" lon="5.39735">
        <ele>251.5</ele>
        <time>2012-08-11T18:48:59Z</time>
      </trkpt>
      <trkpt lat="45.19997" lon="5.39719">
        <ele>251.309998</ele>
        <time>2012-08-11T18:49:05Z</time>
      </trkpt>
      <trkpt lat="45.19949" lon="5.39704">
        <ele>250</ele>
        <time>2012-08-11T18:49:11Z</time>
      </trkpt>
      <trkpt lat="45.19899" lon="5.3969">
        <ele>249.580002</ele>
        <time>2012-08-11T18:49:17Z</time>
      </trkpt>
      <trkpt lat="45.19851" lon="5.39671">
        <ele>248.209991</ele>
        <time>2012-08-11T18:49:23Z</time>
      </trkpt>
      <trkpt lat="45.19804" lon="5.39655">
        <ele>248.299988</ele>
        <time>2012-08-11T18:49:29Z</time>
      </trkpt>
      <trkpt lat="45.19758" lon="5.39638">
        <ele>248.610001</ele>
        <time>2012-08-11T18:49:35Z</time>
      </trkpt>
      <trkpt lat="45.19709" lon="5.3962">
        <ele>248.779999</ele>
        <time>2012-08-11T18:49:41Z</time>
      </trkpt>
      <trkpt lat="45.19658" lon="5.39604">
        <ele>248.860001</ele>
        <time>2012-08-11T18:49:47Z</time>
      </trkpt>
      <trkpt lat="45.19612" lon="5.39571">
        <ele>247.699997</ele>
        <time>2012-08-11T18:49:53Z</time>
      </trkpt>
      <trkpt lat="45.19574" lon="5.39526">
        <ele>246.080002</ele>
        <time>2012-08-11T18:49:59Z</time>
      </trkpt>
      <trkpt lat="45.19542" lon="5.39477">
        <ele>246.080002</ele>
        <time>2012-08-11T18:50:05Z</time>
      </trkpt>
      <trkpt lat="45.19515" lon="5.39425">
        <ele>245</ele>
        <time>2012-08-11T18:50:11Z</time>
      </trkpt>
      <trkpt lat="45.19486" lon="5.39376">
        <ele>245.25</ele>
        <time>2012-08-11T18:50:17Z</time>
      </trkpt>
      <trkpt lat="45.19457" lon="5.39329">
        <ele>245.299988</ele>
        <time>2012-08-11T18:50:23Z</time>
      </trkpt>
      <trkpt lat="45.19425" lon="5.39288">
        <ele>245.059998</ele>
        <time>2012-08-11T18:50:29Z</time>
      </trkpt>
      <trkpt lat="45.19392" lon="5.39256">
        <ele>247.549988</ele>
        <time>2012-08-11T18:50:35Z</time>
      </trkpt>
      <trkpt lat="45.19367" lon="5.39219">
        <ele>249.48999</ele>
        <time>2012-08-11T18:50:41Z</time>
      </trkpt>
      <trkpt lat="45.19341" lon="5.39181">
        <ele>250.789993</ele>
        <time>2012-08-11T18:50:47Z</time>
      </trkpt>
      <trkpt lat="45.19318" lon="5.39141">
        <ele>250.639999</ele>
        <time>2012-08-11T18:50:53Z</time>
      </trkpt>
      <trkpt lat="45.19297" lon="5.39088">
        <ele>248.809998</ele>
        <time>2012-08-11T18:50:59Z</time>
      </trkpt>
      <trkpt lat="45.19272" lon="5.39042">
        <ele>248.149994</ele>
        <time>2012-08-11T18:51:05Z</time>
      </trkpt>
      <trkpt lat="45.19242" lon="5.39011">
        <ele>250.539993</ele>
        <time>2012-08-11T18:51:11Z</time>
      </trkpt>
      <trkpt lat="45.19189" lon="5.38954">
        <ele>256.179993</ele>
        <time>2012-08-11T18:51:23Z</time>
      </trkpt>
      <trkpt lat="45.1914" lon="5.38889">
        <ele>258.220001</ele>
        <time>2012-08-11T18:51:35Z</time>
      </trkpt>
      <trkpt lat="45.19092" lon="5.3883">
        <ele>261.22998</ele>
        <time>2012-08-11T18:51:47Z</time>
      </trkpt>
      <trkpt lat="45.19043" lon="5.3878">
        <ele>264.070007</ele>
        <time>2012-08-11T18:51:59Z</time>
      </trkpt>
      <trkpt lat="45.1899" lon="5.38736">
        <ele>268.660004</ele>
        <time>2012-08-11T18:52:11Z</time>
      </trkpt>
      <trkpt lat="45.18939" lon="5.38687">
        <ele>268.709991</ele>
        <time>2012-08-11T18:52:23Z</time>
      </trkpt>
      <trkpt lat="45.18898" lon="5.38624">
        <ele>269.149994</ele>
        <time>2012-08-11T18:52:35Z</time>
      </trkpt>
      <trkpt lat="45.18853" lon="5.38565">
        <ele>273.139984</ele>
        <time>2012-08-11T18:52:47Z</time>
      </trkpt>
      <trkpt lat="45.18801" lon="5.38525">
        <ele>278.910004</ele>
        <time>2012-08-11T18:52:59Z</time>
      </trkpt>
      <trkpt lat="45.18747" lon="5.38485">
        <ele>279.290009</ele>
        <time>2012-08-11T18:53:11Z</time>
      </trkpt>
      <trkpt lat="45.18689" lon="5.38443">
        <ele>275.929993</ele>
        <time>2012-08-11T18:53:23Z</time>
      </trkpt>
      <trkpt lat="45.18638" lon="5.38406">
        <ele>273.690002</ele>
        <time>2012-08-11T18:53:35Z</time>
      </trkpt>
      <trkpt lat="45.18578" lon="5.38389">
        <ele>281.089996</ele>
        <time>2012-08-11T18:53:47Z</time>
      </trkpt>
      <trkpt lat="45.18519" lon="5.38372">
        <ele>286.470001</ele>
        <time>2012-08-11T18:53:59Z</time>
      </trkpt>
      <trkpt lat="45.18461" lon="5.38357">
        <ele>287.850006</ele>
        <time>2012-08-11T18:54:11Z</time>
      </trkpt>
      <trkpt lat="45.18401" lon="5.38337">
        <ele>289.910004</ele>
        <time>2012-08-11T18:54:23Z</time>
      </trkpt>
      <trkpt lat="45.18345" lon="5.38311">
        <ele>291.820007</ele>
        <time>2012-08-11T18:54:35Z</time>
      </trkpt>
      <trkpt lat="45.18292" lon="5.38285">
        <ele>292.149994</ele>
        <time>2012-08-11T18:54:47Z</time>
      </trkpt>
      <trkpt lat="45.18234" lon="5.38265">
        <ele>293.359985</ele>
        <time>2012-08-11T18:54:59Z</time>
      </trkpt>
      <trkpt lat="45.18176" lon="5.38246">
        <ele>297.889984</ele>
        <time>2012-08-11T18:55:11Z</time>
      </trkpt>
      <trkpt lat="45.18129" lon="5.38218">
        <ele>308.75</ele>
        <time>2012-08-11T18:55:23Z</time>
      </trkpt>
      <trkpt lat="45.18099" lon="5.38146">
        <ele>298.790009</ele>
        <time>2012-08-11T18:55:35Z</time>
      </trkpt>
      <trkpt lat="45.18097" lon="5.38057">
        <ele>291.790009</ele>
        <time>2012-08-11T18:55:47Z</time>
      </trkpt>
      <trkpt lat="45.18115" lon="5.37974">
        <ele>287.290009</ele>
        <time>2012-08-11T18:55:59Z</time>
      </trkpt>
      <trkpt lat="45.18107" lon="5.37881">
        <ele>289.5</ele>
        <time>2012-08-11T18:56:11Z</time>
      </trkpt>
      <trkpt lat="45.1806" lon="5.37816">
        <ele>294.919983</ele>
        <time>2012-08-11T18:56:23Z</time>
      </trkpt>
      <trkpt lat="45.18028" lon="5.37785">
        <ele>297.329987</ele>
        <time>2012-08-11T18:56:29Z</time>
      </trkpt>
      <trkpt lat="45.17993" lon="5.3775">
        <ele>302.130005</ele>
        <time>2012-08-11T18:56:35Z</time>
      </trkpt>
      <trkpt lat="45.17959" lon="5.37716">
        <ele>306.109985</ele>
        <time>2012-08-11T18:56:41Z</time>
      </trkpt>
      <trkpt lat="45.17924" lon="5.3768">
        <ele>304.910004</ele>
        <time>2012-08-11T18:56:47Z</time>
      </trkpt>
      <trkpt lat="45.17892" lon="5.37645">
        <ele>305.690002</ele>
        <time>2012-08-11T18:56:53Z</time>
      </trkpt>
      <trkpt lat="45.1786" lon="5.37613">
        <ele>307.630005</ele>
        <time>2012-08-11T18:56:59Z</time>
      </trkpt>
      <trkpt lat="45.17827" lon="5.3758">
        <ele>306.470001</ele>
        <time>2012-08-11T18:57:05Z</time>
      </trkpt>
      <trkpt lat="45.17797" lon="5.37547">
        <ele>305.820007</ele>
        <time>2012-08-11T18:57:11Z</time>
      </trkpt>
      <trkpt lat="45.17766" lon="5.37514">
        <ele>305.619995</ele>
        <time>2012-08-11T18:57:17Z</time>
      </trkpt>
      <trkpt lat="45.17735" lon="5.37482">
        <ele>305.209991</ele>
        <time>2012-08-11T18:57:23Z</time>
      </trkpt>
      <trkpt lat="45.17675" lon="5.3742">
        <ele>308.850006</ele>
        <time>2012-08-11T18:57:35Z</time>
      </trkpt>
      <trkpt lat="45.17617" lon="5.37358">
        <ele>307.829987</ele>
        <time>2012-08-11T18:57:47Z</time>
      </trkpt>
      <trkpt lat="45.17562" lon="5.37305">
        <ele>311.100006</ele>
        <time>2012-08-11T18:57:59Z</time>
      </trkpt>
      <trkpt lat="45.17508" lon="5.37245">
        <ele>313.959991</ele>
        <time>2012-08-11T18:58:11Z</time>
      </trkpt>
      <trkpt lat="45.17451" lon="5.37179">
        <ele>308.929993</ele>
        <time>2012-08-11T18:58:23Z</time>
      </trkpt>
      <trkpt lat="45.17418" lon="5.37145">
        <ele>305.160004</ele>
        <time>2012-08-11T18:58:29Z</time>
      </trkpt>
      <trkpt lat="45.17387" lon="5.3711">
        <ele>305.079987</ele>
        <time>2012-08-11T18:58:35Z</time>
      </trkpt>
      <trkpt lat="45.17355" lon="5.37076">
        <ele>306.919983</ele>
        <time>2012-08-11T18:58:41Z</time>
      </trkpt>
      <trkpt lat="45.17324" lon="5.37043">
        <ele>306.639984</ele>
        <time>2012-08-11T18:58:47Z</time>
      </trkpt>
      <trkpt lat="45.17293" lon="5.37007">
        <ele>305.529999</ele>
        <time>2012-08-11T18:58:53Z</time>
      </trkpt>
      <trkpt lat="45.17261" lon="5.36973">
        <ele>303.029999</ele>
        <time>2012-08-11T18:58:59Z</time>
      </trkpt>
      <trkpt lat="45.17228" lon="5.3694">
        <ele>301.369995</ele>
        <time>2012-08-11T18:59:05Z</time>
      </trkpt>
      <trkpt lat="45.17196" lon="5.36908">
        <ele>304.419983</ele>
        <time>2012-08-11T18:59:11Z</time>
      </trkpt>
      <trkpt lat="45.17164" lon="5.36875">
        <ele>306.039978</ele>
        <time>2012-08-11T18:59:17Z</time>
      </trkpt>
      <trkpt lat="45.17131" lon="5.36844">
        <ele>307.529999</ele>
        <time>2012-08-11T18:59:23Z</time>
      </trkpt>
      <trkpt lat="45.17099" lon="5.36816">
        <ele>308.549988</ele>
        <time>2012-08-11T18:59:29Z</time>
      </trkpt>
      <trkpt lat="45.17066" lon="5.36795">
        <ele>306.799988</ele>
        <time>2012-08-11T18:59:35Z</time>
      </trkpt>
      <trkpt lat="45.1699" lon="5.36781">
        <ele>311.039978</ele>
        <time>2012-08-11T18:59:47Z</time>
      </trkpt>
      <trkpt lat="45.16948" lon="5.3678">
        <ele>311.440002</ele>
        <time>2012-08-11T18:59:53Z</time>
      </trkpt>
      <trkpt lat="45.16906" lon="5.36776">
        <ele>311.190002</ele>
        <time>2012-08-11T18:59:59Z</time>
      </trkpt>
      <trkpt lat="45.16863" lon="5.36764">
        <ele>308.929993</ele>
        <time>2012-08-11T19:00:05Z</time>
      </trkpt>
      <trkpt lat="45.16819" lon="5.36746">
        <ele>303.919983</ele>
        <time>2012-08-11T19:00:11Z</time>
      </trkpt>
      <trkpt lat="45.16773" lon="5.36733">
        <ele>300.100006</ele>
        <time>2012-08-11T19:00:17Z</time>
      </trkpt>
      <trkpt lat="45.16726" lon="5.36713">
        <ele>297.769989</ele>
        <time>2012-08-11T19:00:23Z</time>
      </trkpt>
      <trkpt lat="45.16689" lon="5.36672">
        <ele>297.119995</ele>
        <time>2012-08-11T19:00:29Z</time>
      </trkpt>
      <trkpt lat="45.16663" lon="5.36617">
        <ele>302.190002</ele>
        <time>2012-08-11T19:00:35Z</time>
      </trkpt>
      <trkpt lat="45.16634" lon="5.36562">
        <ele>302.049988</ele>
        <time>2012-08-11T19:00:41Z</time>
      </trkpt>
      <trkpt lat="45.16606" lon="5.36502">
        <ele>303.079987</ele>
        <time>2012-08-11T19:00:47Z</time>
      </trkpt>
      <trkpt lat="45.16581" lon="5.36446">
        <ele>301.759979</ele>
        <time>2012-08-11T19:00:53Z</time>
      </trkpt>
      <trkpt lat="45.16562" lon="5.36386">
        <ele>300.660004</ele>
        <time>2012-08-11T19:00:59Z</time>
      </trkpt>
      <trkpt lat="45.16546" lon="5.36325">
        <ele>295.540009</ele>
        <time>2012-08-11T19:01:05Z</time>
      </trkpt>
      <trkpt lat="45.16496" lon="5.36299">
        <ele>297.169983</ele>
        <time>2012-08-11T19:01:11Z</time>
      </trkpt>
      <trkpt lat="45.16454" lon="5.36261">
        <ele>296.419983</ele>
        <time>2012-08-11T19:01:17Z</time>
      </trkpt>
      <trkpt lat="45.16426" lon="5.36207">
        <ele>296.660004</ele>
        <time>2012-08-11T19:01:23Z</time>
      </trkpt>
      <trkpt lat="45.164" lon="5.36145">
        <ele>293.470001</ele>
        <time>2012-08-11T19:01:29Z</time>
      </trkpt>
      <trkpt lat="45.16374" lon="5.36087">
        <ele>291.410004</ele>
        <time>2012-08-11T19:01:35Z</time>
      </trkpt>
      <trkpt lat="45.16348" lon="5.3603">
        <ele>291.509979</ele>
        <time>2012-08-11T19:01:41Z</time>
      </trkpt>
      <trkpt lat="45.16324" lon="5.3597">
        <ele>291.690002</ele>
        <time>2012-08-11T19:01:47Z</time>
      </trkpt>
      <trkpt lat="45.16311" lon="5.35906">
        <ele>291.649994</ele>
        <time>2012-08-11T19:01:53Z</time>
      </trkpt>
      <trkpt lat="45.16299" lon="5.35842">
        <ele>290.540009</ele>
        <time>2012-08-11T19:01:59Z</time>
      </trkpt>
      <trkpt lat="45.16287" lon="5.35774">
        <ele>288.660004</ele>
        <time>2012-08-11T19:02:05Z</time>
      </trkpt>
      <trkpt lat="45.16275" lon="5.35708">
        <ele>284.970001</ele>
        <time>2012-08-11T19:02:11Z</time>
      </trkpt>
      <trkpt lat="45.16263" lon="5.35644">
        <ele>283.690002</ele>
        <time>2012-08-11T19:02:17Z</time>
      </trkpt>
      <trkpt lat="45.1625" lon="5.35584">
        <ele>285.220001</ele>
        <time>2012-08-11T19:02:23Z</time>
      </trkpt>
      <trkpt lat="45.16237" lon="5.35527">
        <ele>287.269989</ele>
        <time>2012-08-11T19:02:29Z</time>
      </trkpt>
      <trkpt lat="45.16225" lon="5.35468">
        <ele>288.529999</ele>
        <time>2012-08-11T19:02:35Z</time>
      </trkpt>
      <trkpt lat="45.16215" lon="5.35408">
        <ele>287.649994</ele>
        <time>2012-08-11T19:02:41Z</time>
      </trkpt>
      <trkpt lat="45.16205" lon="5.35349">
        <ele>286</ele>
        <time>2012-08-11T19:02:47Z</time>
      </trkpt>
      <trkpt lat="45.16195" lon="5.35291">
        <ele>284.98999</ele>
        <time>2012-08-11T19:02:53Z</time>
      </trkpt>
      <trkpt lat="45.16182" lon="5.35233">
        <ele>282.98999</ele>
        <time>2012-08-11T19:02:59Z</time>
      </trkpt>
      <trkpt lat="45.1617" lon="5.35176">
        <ele>282.820007</ele>
        <time>2012-08-11T19:03:05Z</time>
      </trkpt>
      <trkpt lat="45.16159" lon="5.3512">
        <ele>281.47998</ele>
        <time>2012-08-11T19:03:11Z</time>
      </trkpt>
      <trkpt lat="45.16148" lon="5.35065">
        <ele>281.649994</ele>
        <time>2012-08-11T19:03:17Z</time>
      </trkpt>
      <trkpt lat="45.16137" lon="5.3501">
        <ele>281.290009</ele>
        <time>2012-08-11T19:03:23Z</time>
      </trkpt>
      <trkpt lat="45.16127" lon="5.34953">
        <ele>280.880005</ele>
        <time>2012-08-11T19:03:29Z</time>
      </trkpt>
      <trkpt lat="45.16115" lon="5.34897">
        <ele>281.23999</ele>
        <time>2012-08-11T19:03:35Z</time>
      </trkpt>
      <trkpt lat="45.16103" lon="5.3484">
        <ele>280.549988</ele>
        <time>2012-08-11T19:03:41Z</time>
      </trkpt>
      <trkpt lat="45.1609" lon="5.34783">
        <ele>279.929993</ele>
        <time>2012-08-11T19:03:47Z</time>
      </trkpt>
      <trkpt lat="45.16079" lon="5.34724">
        <ele>280.410004</ele>
        <time>2012-08-11T19:03:53Z</time>
      </trkpt>
      <trkpt lat="45.16065" lon="5.34666">
        <ele>280.859985</ele>
        <time>2012-08-11T19:03:59Z</time>
      </trkpt>
      <trkpt lat="45.16055" lon="5.34606">
        <ele>279.549988</ele>
        <time>2012-08-11T19:04:05Z</time>
      </trkpt>
      <trkpt lat="45.16044" lon="5.34548">
        <ele>279.079987</ele>
        <time>2012-08-11T19:04:11Z</time>
      </trkpt>
      <trkpt lat="45.16032" lon="5.34491">
        <ele>280.399994</ele>
        <time>2012-08-11T19:04:17Z</time>
      </trkpt>
      <trkpt lat="45.16019" lon="5.34432">
        <ele>281.070007</ele>
        <time>2012-08-11T19:04:23Z</time>
      </trkpt>
      <trkpt lat="45.16007" lon="5.34373">
        <ele>279.859985</ele>
        <time>2012-08-11T19:04:29Z</time>
      </trkpt>
      <trkpt lat="45.15996" lon="5.34314">
        <ele>278.709991</ele>
        <time>2012-08-11T19:04:35Z</time>
      </trkpt>
      <trkpt lat="45.15992" lon="5.34254">
        <ele>277.380005</ele>
        <time>2012-08-11T19:04:41Z</time>
      </trkpt>
      <trkpt lat="45.15992" lon="5.34195">
        <ele>279.929993</ele>
        <time>2012-08-11T19:04:47Z</time>
      </trkpt>
      <trkpt lat="45.15976" lon="5.34152">
        <ele>280.720001</ele>
        <time>2012-08-11T19:04:53Z</time>
      </trkpt>
      <trkpt lat="45.15943" lon="5.34056">
        <ele>279.029999</ele>
        <time>2012-08-11T19:05:05Z</time>
      </trkpt>
      <trkpt lat="45.15931" lon="5.34001">
        <ele>279.259979</ele>
        <time>2012-08-11T19:05:11Z</time>
      </trkpt>
      <trkpt lat="45.1592" lon="5.33945">
        <ele>277.889984</ele>
        <time>2012-08-11T19:05:17Z</time>
      </trkpt>
      <trkpt lat="45.1591" lon="5.3389">
        <ele>278.179993</ele>
        <time>2012-08-11T19:05:23Z</time>
      </trkpt>
      <trkpt lat="45.15897" lon="5.33834">
        <ele>279.759979</ele>
        <time>2012-08-11T19:05:29Z</time>
      </trkpt>
      <trkpt lat="45.15886" lon="5.33776">
        <ele>280.23999</ele>
        <time>2012-08-11T19:05:35Z</time>
      </trkpt>
      <trkpt lat="45.15873" lon="5.33719">
        <ele>278.809998</ele>
        <time>2012-08-11T19:05:41Z</time>
      </trkpt>
      <trkpt lat="45.15862" lon="5.33662">
        <ele>277.309998</ele>
        <time>2012-08-11T19:05:47Z</time>
      </trkpt>
      <trkpt lat="45.15851" lon="5.33605">
        <ele>279.029999</ele>
        <time>2012-08-11T19:05:53Z</time>
      </trkpt>
      <trkpt lat="45.1584" lon="5.33557">
        <ele>282.839996</ele>
        <time>2012-08-11T19:05:59Z</time>
      </trkpt>
      <trkpt lat="45.15855" lon="5.3347">
        <ele>286.369995</ele>
        <time>2012-08-11T19:06:11Z</time>
      </trkpt>
      <trkpt lat="45.15892" lon="5.33453">
        <ele>288.639984</ele>
        <time>2012-08-11T19:06:17Z</time>
      </trkpt>
      <trkpt lat="45.15929" lon="5.33437">
        <ele>290.149994</ele>
        <time>2012-08-11T19:06:23Z</time>
      </trkpt>
      <trkpt lat="45.15966" lon="5.33441">
        <ele>290.48999</ele>
        <time>2012-08-11T19:06:29Z</time>
      </trkpt>
      <trkpt lat="45.16001" lon="5.33449">
        <ele>291.23999</ele>
        <time>2012-08-11T19:06:35Z</time>
      </trkpt>
      <trkpt lat="45.1607" lon="5.3346">
        <ele>291.649994</ele>
        <time>2012-08-11T19:06:47Z</time>
      </trkpt>
      <trkpt lat="45.16123" lon="5.33469">
        <ele>291.589996</ele>
        <time>2012-08-11T19:06:59Z</time>
      </trkpt>
      <trkpt lat="45.16181" lon="5.33425">
        <ele>288.389984</ele>
        <time>2012-08-11T19:07:11Z</time>
      </trkpt>
      <trkpt lat="45.16243" lon="5.3339">
        <ele>288.929993</ele>
        <time>2012-08-11T19:07:23Z</time>
      </trkpt>
      <trkpt lat="45.16309" lon="5.33367">
        <ele>290.389984</ele>
        <time>2012-08-11T19:07:35Z</time>
      </trkpt>
      <trkpt lat="45.16347" lon="5.33372">
        <ele>291.359985</ele>
        <time>2012-08-11T19:07:41Z</time>
      </trkpt>
      <trkpt lat="45.16364" lon="5.33371">
        <ele>288.549988</ele>
        <time>2012-08-11T19:07:53Z</time>
      </trkpt>
      <trkpt lat="45.16381" lon="5.33391">
        <ele>288.579987</ele>
        <time>2012-08-11T19:08:05Z</time>
      </trkpt>
      <trkpt lat="45.1643" lon="5.33446">
        <ele>286.549988</ele>
        <time>2012-08-11T19:08:17Z</time>
      </trkpt>
      <trkpt lat="45.16502" lon="5.33462">
        <ele>285.540009</ele>
        <time>2012-08-11T19:08:29Z</time>
      </trkpt>
      <trkpt lat="45.16541" lon="5.3346">
        <ele>284.630005</ele>
        <time>2012-08-11T19:08:35Z</time>
      </trkpt>
      <trkpt lat="45.16616" lon="5.33451">
        <ele>284.109985</ele>
        <time>2012-08-11T19:08:47Z</time>
      </trkpt>
      <trkpt lat="45.16657" lon="5.33456">
        <ele>283.329987</ele>
        <time>2012-08-11T19:08:53Z</time>
      </trkpt>
      <trkpt lat="45.16698" lon="5.33473">
        <ele>281.419983</ele>
        <time>2012-08-11T19:08:59Z</time>
      </trkpt>
      <trkpt lat="45.16739" lon="5.33491">
        <ele>279.589996</ele>
        <time>2012-08-11T19:09:05Z</time>
      </trkpt>
      <trkpt lat="45.16779" lon="5.33521">
        <ele>275.98999</ele>
        <time>2012-08-11T19:09:11Z</time>
      </trkpt>
      <trkpt lat="45.16808" lon="5.33541">
        <ele>280.019989</ele>
        <time>2012-08-11T19:09:17Z</time>
      </trkpt>
      <trkpt lat="45.16852" lon="5.33482">
        <ele>277.709991</ele>
        <time>2012-08-11T19:09:29Z</time>
      </trkpt>
      <trkpt lat="45.16885" lon="5.33437">
        <ele>279.190002</ele>
        <time>2012-08-11T19:09:35Z</time>
      </trkpt>
      <trkpt lat="45.1691" lon="5.33399">
        <ele>278.579987</ele>
        <time>2012-08-11T19:09:41Z</time>
      </trkpt>
      <trkpt lat="45.16952" lon="5.33326">
        <ele>275.410004</ele>
        <time>2012-08-11T19:09:53Z</time>
      </trkpt>
      <trkpt lat="45.16993" lon="5.3326">
        <ele>279.639984</ele>
        <time>2012-08-11T19:10:05Z</time>
      </trkpt>
      <trkpt lat="45.17039" lon="5.33227">
        <ele>284.22998</ele>
        <time>2012-08-11T19:10:17Z</time>
      </trkpt>
      <trkpt lat="45.17091" lon="5.33194">
        <ele>282.929993</ele>
        <time>2012-08-11T19:10:29Z</time>
      </trkpt>
      <trkpt lat="45.17138" lon="5.33148">
        <ele>284.47998</ele>
        <time>2012-08-11T19:10:41Z</time>
      </trkpt>
      <trkpt lat="45.17182" lon="5.33116">
        <ele>284.97998</ele>
        <time>2012-08-11T19:10:53Z</time>
      </trkpt>
      <trkpt lat="45.1723" lon="5.33161">
        <ele>292.149994</ele>
        <time>2012-08-11T19:11:05Z</time>
      </trkpt>
      <trkpt lat="45.17287" lon="5.33201">
        <ele>294</ele>
        <time>2012-08-11T19:11:17Z</time>
      </trkpt>
      <trkpt lat="45.17347" lon="5.33234">
        <ele>298.679993</ele>
        <time>2012-08-11T19:11:29Z</time>
      </trkpt>
      <trkpt lat="45.17395" lon="5.33256">
        <ele>302.709991</ele>
        <time>2012-08-11T19:11:41Z</time>
      </trkpt>
      <trkpt lat="45.1739" lon="5.33272">
        <ele>303.639984</ele>
        <time>2012-08-11T19:11:53Z</time>
      </trkpt>
      <trkpt lat="45.1739" lon="5.33272">
        <ele>303.639984</ele>
        <time>2012-08-11T19:12:05Z</time>
      </trkpt>
      <trkpt lat="45.1739" lon="5.33272">
        <ele>303.639984</ele>
        <time>2012-08-11T19:12:17Z</time>
      </trkpt>
      <trkpt lat="45.1739" lon="5.33272">
        <ele>303.639984</ele>
        <time>2012-08-11T19:12:29Z</time>
      </trkpt>
      <trkpt lat="45.1739" lon="5.33272">
        <ele>303.639984</ele>
        <time>2012-08-11T19:12:41Z</time>
      </trkpt>
      <trkpt lat="45.1739" lon="5.33272">
        <ele>303.639984</ele>
        <time>2012-08-11T19:12:53Z</time>
      </trkpt>
      <trkpt lat="45.1739" lon="5.33272">
        <ele>303.639984</ele>
        <time>2012-08-11T19:13:05Z</time>
      </trkpt>
      <trkpt lat="45.1739" lon="5.33272">
        <ele>303.639984</ele>
        <time>2012-08-11T19:13:17Z</time>
      </trkpt>
      <trkpt lat="45.1739" lon="5.33272">
        <ele>303.639984</ele>
        <time>2012-08-11T19:13:29Z</time>
      </trkpt>
    </trkseg>
  </trk>
</gpx>